PWSweather.com
Personal Weather Stations
Station Observations
DL5ARK
SonnebergDE

SonnebergDE

Lat: 50.34904861, Lon: 11.18112087

Elevation: 1214

Station Type: Selfmade

http://www.sumbarg.de

High Low Average
Temperature 38.6°F3.7°C 33.8°F1.0°C 36.5°F2.5°C
Dew Point 42.5°F5.8°C 38.5°F3.6°C 40.6°F4.8°C
Winds 13.2 mph 21.2 kmh Calm Calm 2.0 mph W3.2 kmh W
Wind Gusts 13.2 mph21.2 kmh -- 2.0 mph3.2 kmh
Humidity 92% 87% 90%
Pressure 29.75 in1007.5 mb 29.60 in1002.4 mb -
Precipitation 0.46 in11.7 mm - -
Hour Temp Dew Point Humidity Winds Wind Gusts Pressure Precip Precip Rate Daily Precip Total
12:01 AM 37.2°F2.9°C 41.1°F5.1°C 91% 6.4 mph WSW10.3 kmh WSW 6.4 mph10.3 kmh 29.75 in1007.5 mb 0.00 in0.0 mm 0.00 in0.0 mm 0.00 in0.0 mm
12:04 AM 37.2°F2.9°C 40.9°F4.9°C 91% 3.6 mph WSW5.8 kmh WSW 3.7 mph6.0 kmh 29.75 in1007.5 mb 0.00 in0.0 mm 0.00 in0.0 mm 0.00 in0.0 mm
12:07 AM 37.2°F2.9°C 41.0°F5.0°C 91% 3.6 mph SW5.8 kmh SW 3.7 mph6.0 kmh 29.74 in1007.1 mb 0.00 in0.0 mm 0.00 in0.0 mm 0.00 in0.0 mm
12:10 AM 37.2°F2.9°C 40.7°F4.8°C 90% 3.6 mph NW5.8 kmh NW 3.7 mph6.0 kmh 29.74 in1007.1 mb 0.00 in0.0 mm 0.00 in0.0 mm 0.00 in0.0 mm
12:13 AM 37.2°F2.9°C 41.1°F5.1°C 91% 2.4 mph SW3.9 kmh SW 2.4 mph3.9 kmh 29.74 in1007.1 mb 0.00 in0.0 mm 0.00 in0.0 mm 0.00 in0.0 mm
12:16 AM 37.2°F2.9°C 41.1°F5.1°C 91% 6.5 mph WSW10.5 kmh WSW 6.5 mph10.5 kmh 29.74 in1007.1 mb 0.00 in0.0 mm 0.00 in0.0 mm 0.00 in0.0 mm
12:19 AM 37.2°F2.9°C 41.1°F5.1°C 91% 3.6 mph W5.8 kmh W 3.6 mph5.8 kmh 29.74 in1007.1 mb 0.00 in0.0 mm 0.00 in0.0 mm 0.00 in0.0 mm
12:22 AM 37.3°F2.9°C 40.9°F4.9°C 91% 5.6 mph NNW9.0 kmh NNW 5.6 mph9.0 kmh 29.74 in1007.1 mb 0.00 in0.0 mm 0.00 in0.0 mm 0.00 in0.0 mm
12:25 AM 37.3°F2.9°C 40.9°F4.9°C 91% 6.1 mph SW9.8 kmh SW 6.1 mph9.8 kmh 29.74 in1007.1 mb 0.00 in0.0 mm 0.00 in0.0 mm 0.00 in0.0 mm
12:28 AM 37.3°F2.9°C 41.1°F5.1°C 91% 3.2 mph WNW5.1 kmh WNW 3.2 mph5.1 kmh 29.74 in1007.1 mb 0.00 in0.0 mm 0.00 in0.0 mm 0.00 in0.0 mm
12:37 AM 37.3°F2.9°C 41.2°F5.1°C 91% 3.6 mph WSW5.8 kmh WSW 3.7 mph6.0 kmh 29.74 in1007.1 mb 0.00 in0.0 mm 0.00 in0.0 mm 0.00 in0.0 mm
12:40 AM 37.3°F2.9°C 41.0°F5.0°C 90% 4.4 mph WNW7.1 kmh WNW 4.4 mph7.1 kmh 29.74 in1007.1 mb 0.00 in0.0 mm 0.00 in0.0 mm 0.00 in0.0 mm
12:43 AM 37.4°F3.0°C 40.9°F4.9°C 91% 3.6 mph W5.8 kmh W 3.7 mph6.0 kmh 29.74 in1007.1 mb 0.00 in0.0 mm 0.00 in0.0 mm 0.00 in0.0 mm
12:46 AM 37.4°F3.0°C 41.2°F5.1°C 91% 6.5 mph NNW10.5 kmh NNW 6.5 mph10.5 kmh 29.74 in1007.1 mb 0.00 in0.0 mm 0.00 in0.0 mm 0.00 in0.0 mm
12:49 AM 37.5°F3.1°C 41.0°F5.0°C 91% 4.0 mph NW6.4 kmh NW 4.1 mph6.6 kmh 29.74 in1007.1 mb 0.00 in0.0 mm 0.00 in0.0 mm 0.00 in0.0 mm
12:52 AM 37.3°F2.9°C 41.2°F5.1°C 91% 3.2 mph W5.1 kmh W 3.2 mph5.1 kmh 29.74 in1007.1 mb 0.00 in0.0 mm 0.00 in0.0 mm 0.00 in0.0 mm
12:55 AM 37.6°F3.1°C 40.9°F4.9°C 90% 9.5 mph WSW15.3 kmh WSW 9.6 mph15.4 kmh 29.74 in1007.1 mb 0.00 in0.0 mm 0.00 in0.0 mm 0.00 in0.0 mm
12:58 AM 37.5°F3.1°C 41.1°F5.1°C 91% 6.0 mph NNW9.7 kmh NNW 6.0 mph9.7 kmh 29.73 in1006.8 mb 0.00 in0.0 mm 0.00 in0.0 mm 0.00 in0.0 mm
01:01 AM 37.4°F3.0°C 40.9°F4.9°C 90% 9.7 mph NNW15.6 kmh NNW 9.8 mph15.8 kmh 29.73 in1006.8 mb 0.00 in0.0 mm 0.00 in0.0 mm 0.00 in0.0 mm
01:04 AM 37.5°F3.1°C 41.0°F5.0°C 90% 2.4 mph NNW3.9 kmh NNW 2.4 mph3.9 kmh 29.73 in1006.8 mb 0.00 in0.0 mm 0.00 in0.0 mm 0.00 in0.0 mm
01:07 AM 37.5°F3.1°C 40.9°F4.9°C 91% 4.9 mph W7.9 kmh W 4.9 mph7.9 kmh 29.73 in1006.8 mb 0.00 in0.0 mm 0.00 in0.0 mm 0.00 in0.0 mm
01:10 AM 37.4°F3.0°C 41.2°F5.1°C 91% 2.0 mph WSW3.2 kmh WSW 2.0 mph3.2 kmh 29.73 in1006.8 mb 0.00 in0.0 mm 0.00 in0.0 mm 0.00 in0.0 mm
01:13 AM 37.4°F3.0°C 41.0°F5.0°C 90% 4.0 mph WNW6.4 kmh WNW 4.1 mph6.6 kmh 29.73 in1006.8 mb 0.00 in0.0 mm 0.00 in0.0 mm 0.00 in0.0 mm
01:16 AM 37.5°F3.1°C 40.9°F4.9°C 90% 7.7 mph WSW12.4 kmh WSW 7.7 mph12.4 kmh 29.73 in1006.8 mb 0.00 in0.0 mm 0.00 in0.0 mm 0.00 in0.0 mm
01:19 AM 37.5°F3.1°C 41.1°F5.1°C 90% 3.2 mph WSW5.1 kmh WSW 3.2 mph5.1 kmh 29.73 in1006.8 mb 0.00 in0.0 mm 0.00 in0.0 mm 0.00 in0.0 mm
01:22 AM 37.4°F3.0°C 40.9°F4.9°C 90% 2.4 mph WSW3.9 kmh WSW 2.4 mph3.9 kmh 29.73 in1006.8 mb 0.00 in0.0 mm 0.00 in0.0 mm 0.00 in0.0 mm
01:25 AM 37.4°F3.0°C 41.1°F5.1°C 90% 1.6 mph NNW2.6 kmh NNW 1.6 mph2.6 kmh 29.73 in1006.8 mb 0.00 in0.0 mm 0.00 in0.0 mm 0.00 in0.0 mm
01:28 AM 37.4°F3.0°C 41.2°F5.1°C 90% 3.6 mph NNW5.8 kmh NNW 3.7 mph6.0 kmh 29.72 in1006.4 mb 0.00 in0.0 mm 0.00 in0.0 mm 0.00 in0.0 mm
01:31 AM 37.4°F3.0°C 41.0°F5.0°C 90% 3.2 mph WSW5.1 kmh WSW 3.2 mph5.1 kmh 29.72 in1006.4 mb 0.00 in0.0 mm 0.00 in0.0 mm 0.00 in0.0 mm
01:34 AM 37.4°F3.0°C 41.2°F5.1°C 90% 7.7 mph W12.4 kmh W 7.8 mph12.6 kmh 29.72 in1006.4 mb 0.00 in0.0 mm 0.00 in0.0 mm 0.00 in0.0 mm
01:37 AM 37.4°F3.0°C 40.9°F4.9°C 90% 4.4 mph W7.1 kmh W 4.4 mph7.1 kmh 29.72 in1006.4 mb 0.00 in0.0 mm 0.00 in0.0 mm 0.00 in0.0 mm
01:40 AM 37.4°F3.0°C 41.3°F5.2°C 90% 3.2 mph W5.1 kmh W 3.2 mph5.1 kmh 29.72 in1006.4 mb 0.00 in0.0 mm 0.00 in0.0 mm 0.00 in0.0 mm
01:43 AM 37.4°F3.0°C 41.1°F5.1°C 90% 4.9 mph NNW7.9 kmh NNW 4.9 mph7.9 kmh 29.72 in1006.4 mb 0.00 in0.0 mm 0.00 in0.0 mm 0.00 in0.0 mm
01:46 AM 37.4°F3.0°C 41.1°F5.1°C 90% 6.4 mph W10.3 kmh W 6.4 mph10.3 kmh 29.72 in1006.4 mb 0.00 in0.0 mm 0.00 in0.0 mm 0.00 in0.0 mm
01:49 AM 37.4°F3.0°C 41.1°F5.1°C 90% 1.2 mph NNW1.9 kmh NNW 1.2 mph1.9 kmh 29.72 in1006.4 mb 0.00 in0.0 mm 0.00 in0.0 mm 0.00 in0.0 mm
01:52 AM 37.4°F3.0°C 41.1°F5.1°C 90% 3.2 mph NNW5.1 kmh NNW 3.2 mph5.1 kmh 29.72 in1006.4 mb 0.00 in0.0 mm 0.00 in0.0 mm 0.00 in0.0 mm
01:55 AM 37.4°F3.0°C 40.9°F4.9°C 90% 11.5 mph W18.5 kmh W 11.6 mph18.7 kmh 29.72 in1006.4 mb 0.00 in0.0 mm 0.00 in0.0 mm 0.00 in0.0 mm
01:58 AM 37.3°F2.9°C 41.1°F5.1°C 90% 7.3 mph W11.7 kmh W 7.4 mph11.9 kmh 29.72 in1006.4 mb 0.00 in0.0 mm 0.00 in0.0 mm 0.00 in0.0 mm
02:04 AM 37.4°F3.0°C 41.0°F5.0°C 90% 7.2 mph W11.6 kmh W 7.2 mph11.6 kmh 29.72 in1006.4 mb 0.00 in0.0 mm 0.00 in0.0 mm 0.00 in0.0 mm
02:07 AM 37.4°F3.0°C 41.2°F5.1°C 90% 4.8 mph NNW7.7 kmh NNW 4.8 mph7.7 kmh 29.72 in1006.4 mb 0.00 in0.0 mm 0.00 in0.0 mm 0.00 in0.0 mm
02:10 AM 37.4°F3.0°C 41.1°F5.1°C 90% 10.5 mph NNW16.9 kmh NNW 10.5 mph16.9 kmh 29.72 in1006.4 mb 0.00 in0.0 mm 0.00 in0.0 mm 0.00 in0.0 mm
02:13 AM 37.5°F3.1°C 41.2°F5.1°C 90% 5.7 mph WNW9.2 kmh WNW 5.7 mph9.2 kmh 29.72 in1006.4 mb 0.00 in0.0 mm 0.00 in0.0 mm 0.00 in0.0 mm
02:16 AM 37.5°F3.1°C 41.2°F5.1°C 90% 6.0 mph W9.7 kmh W 6.0 mph9.7 kmh 29.72 in1006.4 mb 0.00 in0.0 mm 0.00 in0.0 mm 0.00 in0.0 mm
02:19 AM 37.4°F3.0°C 41.2°F5.1°C 90% 1.6 mph 2.6 kmh 1.6 mph2.6 kmh 29.72 in1006.4 mb 0.00 in0.0 mm 0.00 in0.0 mm 0.00 in0.0 mm
02:22 AM 37.5°F3.1°C 40.9°F4.9°C 90% 10.5 mph WSW16.9 kmh WSW 10.5 mph16.9 kmh 29.72 in1006.4 mb 0.00 in0.0 mm 0.00 in0.0 mm 0.00 in0.0 mm
02:25 AM 37.5°F3.1°C 41.0°F5.0°C 91% 6.5 mph W10.5 kmh W 6.5 mph10.5 kmh 29.72 in1006.4 mb 0.00 in0.0 mm 0.00 in0.0 mm 0.00 in0.0 mm
02:28 AM 37.5°F3.1°C 41.2°F5.1°C 91% 5.7 mph W9.2 kmh W 5.7 mph9.2 kmh 29.71 in1006.1 mb 0.00 in0.0 mm 0.00 in0.0 mm 0.00 in0.0 mm
02:31 AM 37.6°F3.1°C 41.2°F5.1°C 91% 5.3 mph W8.5 kmh W 5.3 mph8.5 kmh 29.71 in1006.1 mb 0.00 in0.0 mm 0.00 in0.0 mm 0.00 in0.0 mm
02:34 AM 37.6°F3.1°C 41.0°F5.0°C 90% 8.9 mph NNW14.3 kmh NNW 8.9 mph14.3 kmh 29.71 in1006.1 mb 0.00 in0.0 mm 0.00 in0.0 mm 0.00 in0.0 mm
02:37 AM 37.5°F3.1°C 41.2°F5.1°C 91% 13.2 mph W21.2 kmh W 13.2 mph21.2 kmh 29.71 in1006.1 mb 0.00 in0.0 mm 0.00 in0.0 mm 0.00 in0.0 mm
02:40 AM 37.5°F3.1°C 41.3°F5.2°C 90% 6.4 mph SW10.3 kmh SW 6.4 mph10.3 kmh 29.70 in1005.8 mb 0.00 in0.0 mm 0.00 in0.0 mm 0.00 in0.0 mm
02:43 AM 37.6°F3.1°C 41.1°F5.1°C 90% 5.9 mph NW9.5 kmh NW 5.9 mph9.5 kmh 29.71 in1006.1 mb 0.00 in0.0 mm 0.00 in0.0 mm 0.00 in0.0 mm
02:46 AM 37.6°F3.1°C 41.2°F5.1°C 90% 7.3 mph WSW11.7 kmh WSW 7.3 mph11.7 kmh 29.70 in1005.8 mb 0.00 in0.0 mm 0.00 in0.0 mm 0.00 in0.0 mm
02:49 AM 37.6°F3.1°C 41.3°F5.2°C 90% 6.4 mph W10.3 kmh W 6.4 mph10.3 kmh 29.70 in1005.8 mb 0.00 in0.0 mm 0.00 in0.0 mm 0.00 in0.0 mm
02:52 AM 37.6°F3.1°C 41.4°F5.2°C 91% 10.0 mph WSW16.1 kmh WSW 10.1 mph16.3 kmh 29.70 in1005.8 mb 0.00 in0.0 mm 0.00 in0.0 mm 0.00 in0.0 mm
02:55 AM 37.6°F3.1°C 41.4°F5.2°C 91% 6.5 mph WSW10.5 kmh WSW 6.5 mph10.5 kmh 29.70 in1005.8 mb 0.00 in0.0 mm 0.00 in0.0 mm 0.00 in0.0 mm
02:58 AM 37.6°F3.1°C 41.5°F5.3°C 91% 8.1 mph W13.0 kmh W 8.1 mph13.0 kmh 29.69 in1005.4 mb 0.00 in0.0 mm 0.00 in0.0 mm 0.00 in0.0 mm
03:01 AM 37.6°F3.1°C 41.3°F5.2°C 90% 2.0 mph W3.2 kmh W 2.0 mph3.2 kmh 29.70 in1005.8 mb 0.00 in0.0 mm 0.00 in0.0 mm 0.00 in0.0 mm
03:04 AM 37.6°F3.1°C 41.2°F5.1°C 91% 9.3 mph W15.0 kmh W 9.3 mph15.0 kmh 29.70 in1005.8 mb 0.00 in0.0 mm 0.00 in0.0 mm 0.00 in0.0 mm
03:07 AM 37.6°F3.1°C 41.4°F5.2°C 90% 6.4 mph WSW10.3 kmh WSW 6.4 mph10.3 kmh 29.69 in1005.4 mb 0.00 in0.0 mm 0.00 in0.0 mm 0.00 in0.0 mm
03:10 AM 37.6°F3.1°C 41.2°F5.1°C 91% 6.1 mph WSW9.8 kmh WSW 6.1 mph9.8 kmh 29.69 in1005.4 mb 0.00 in0.0 mm 0.00 in0.0 mm 0.00 in0.0 mm
03:13 AM 37.6°F3.1°C 41.4°F5.2°C 91% 9.3 mph W15.0 kmh W 9.3 mph15.0 kmh 29.69 in1005.4 mb 0.00 in0.0 mm 0.00 in0.0 mm 0.00 in0.0 mm
03:19 AM 37.5°F3.1°C 41.4°F5.2°C 91% 7.7 mph WSW12.4 kmh WSW 7.8 mph12.6 kmh 29.69 in1005.4 mb 0.00 in0.0 mm 0.00 in0.0 mm 0.00 in0.0 mm
03:22 AM 37.5°F3.1°C 41.3°F5.2°C 90% 4.9 mph W7.9 kmh W 4.9 mph7.9 kmh 29.69 in1005.4 mb 0.00 in0.0 mm 0.00 in0.0 mm 0.00 in0.0 mm
03:25 AM 37.5°F3.1°C 41.3°F5.2°C 91% 3.9 mph W6.3 kmh W 4.0 mph6.4 kmh 29.69 in1005.4 mb 0.00 in0.0 mm 0.00 in0.0 mm 0.00 in0.0 mm
03:28 AM 37.5°F3.1°C 41.4°F5.2°C 91% 5.6 mph NNW9.0 kmh NNW 5.6 mph9.0 kmh 29.69 in1005.4 mb 0.00 in0.0 mm 0.00 in0.0 mm 0.02 in0.5 mm
03:31 AM 37.5°F3.1°C 41.5°F5.3°C 90% 4.8 mph WNW7.7 kmh WNW 4.9 mph7.9 kmh 29.69 in1005.4 mb 0.00 in0.0 mm 0.00 in0.0 mm 0.02 in0.5 mm
03:34 AM 37.4°F3.0°C 41.4°F5.2°C 90% Calm Calm -- 29.69 in1005.4 mb 0.00 in0.0 mm 0.00 in0.0 mm 0.02 in0.5 mm
03:37 AM 37.4°F3.0°C 41.5°F5.3°C 91% 2.4 mph WSW3.9 kmh WSW 2.4 mph3.9 kmh 29.69 in1005.4 mb 0.00 in0.0 mm 0.00 in0.0 mm 0.02 in0.5 mm
03:40 AM 37.4°F3.0°C 41.3°F5.2°C 90% 3.6 mph NNW5.8 kmh NNW 3.6 mph5.8 kmh 29.69 in1005.4 mb 0.00 in0.0 mm 0.00 in0.0 mm 0.02 in0.5 mm
03:43 AM 37.4°F3.0°C 41.3°F5.2°C 90% 6.4 mph WNW10.3 kmh WNW 6.5 mph10.5 kmh 29.69 in1005.4 mb 0.00 in0.0 mm 0.00 in0.0 mm 0.02 in0.5 mm
03:46 AM 37.3°F2.9°C 41.3°F5.2°C 90% 3.8 mph NNW6.1 kmh NNW 4.1 mph6.6 kmh 29.69 in1005.4 mb 0.00 in0.0 mm 0.00 in0.0 mm 0.02 in0.5 mm
03:49 AM 37.3°F2.9°C 41.5°F5.3°C 90% 4.0 mph NNW6.4 kmh NNW 4.0 mph6.4 kmh 29.69 in1005.4 mb 0.00 in0.0 mm 0.00 in0.0 mm 0.04 in1.0 mm
03:52 AM 37.3°F2.9°C 41.2°F5.1°C 90% 3.6 mph WSW5.8 kmh WSW 3.7 mph6.0 kmh 29.69 in1005.4 mb 0.00 in0.0 mm 0.00 in0.0 mm 0.04 in1.0 mm
03:55 AM 37.3°F2.9°C 41.1°F5.1°C 90% 3.6 mph WSW5.8 kmh WSW 3.7 mph6.0 kmh 29.68 in1005.1 mb 0.00 in0.0 mm 0.00 in0.0 mm 0.04 in1.0 mm
03:58 AM 37.3°F2.9°C 41.2°F5.1°C 90% 7.3 mph WSW11.7 kmh WSW 7.3 mph11.7 kmh 29.68 in1005.1 mb 0.00 in0.0 mm 0.00 in0.0 mm 0.04 in1.0 mm
04:01 AM 37.2°F2.9°C 41.3°F5.2°C 90% 3.7 mph NNW6.0 kmh NNW 3.7 mph6.0 kmh 29.68 in1005.1 mb 0.00 in0.0 mm 0.00 in0.0 mm 0.04 in1.0 mm
04:04 AM 37.2°F2.9°C 41.3°F5.2°C 90% 1.2 mph W1.9 kmh W 1.2 mph1.9 kmh 29.68 in1005.1 mb 0.00 in0.0 mm 0.00 in0.0 mm 0.04 in1.0 mm
04:07 AM 37.1°F2.8°C 41.0°F5.0°C 90% 4.8 mph WSW7.7 kmh WSW 4.9 mph7.9 kmh 29.68 in1005.1 mb 0.00 in0.0 mm 0.00 in0.0 mm 0.06 in1.5 mm
04:10 AM 37.1°F2.8°C 41.0°F5.0°C 90% 4.4 mph SW7.1 kmh SW 4.4 mph7.1 kmh 29.68 in1005.1 mb 0.00 in0.0 mm 0.00 in0.0 mm 0.06 in1.5 mm
04:13 AM 37.0°F2.8°C 41.3°F5.2°C 90% 1.2 mph NNW1.9 kmh NNW 1.2 mph1.9 kmh 29.68 in1005.1 mb 0.00 in0.0 mm 0.00 in0.0 mm 0.06 in1.5 mm
04:16 AM 36.8°F2.7°C 41.1°F5.1°C 90% 6.9 mph SW11.1 kmh SW 6.9 mph11.1 kmh 29.68 in1005.1 mb 0.00 in0.0 mm 0.00 in0.0 mm 0.06 in1.5 mm
04:19 AM 36.6°F2.6°C 40.7°F4.8°C 90% 4.8 mph W7.7 kmh W 4.8 mph7.7 kmh 29.68 in1005.1 mb 0.00 in0.0 mm 0.00 in0.0 mm 0.06 in1.5 mm
04:22 AM 36.5°F2.5°C 40.7°F4.8°C 90% 6.0 mph SW9.7 kmh SW 6.0 mph9.7 kmh 29.67 in1004.7 mb 0.00 in0.0 mm 0.00 in0.0 mm 0.06 in1.5 mm
04:25 AM 36.4°F2.4°C 40.2°F4.6°C 89% 7.3 mph W11.7 kmh W 7.3 mph11.7 kmh 29.67 in1004.7 mb 0.00 in0.0 mm 0.00 in0.0 mm 0.08 in2.0 mm
04:28 AM 36.3°F2.4°C 40.4°F4.7°C 90% 4.0 mph WSW6.4 kmh WSW 4.1 mph6.6 kmh 29.67 in1004.7 mb 0.00 in0.0 mm 0.00 in0.0 mm 0.08 in2.0 mm
04:31 AM 36.3°F2.4°C 40.0°F4.4°C 89% 5.3 mph SW8.5 kmh SW 5.3 mph8.5 kmh 29.67 in1004.7 mb 0.00 in0.0 mm 0.00 in0.0 mm 0.08 in2.0 mm
04:34 AM 36.3°F2.4°C 40.4°F4.7°C 90% 6.9 mph NNW11.1 kmh NNW 6.9 mph11.1 kmh 29.67 in1004.7 mb 0.00 in0.0 mm 0.00 in0.0 mm 0.08 in2.0 mm
04:37 AM 36.2°F2.3°C 40.3°F4.6°C 90% 2.8 mph WSW4.5 kmh WSW 2.8 mph4.5 kmh 29.67 in1004.7 mb 0.00 in0.0 mm 0.00 in0.0 mm 0.08 in2.0 mm
04:40 AM 36.2°F2.3°C 40.4°F4.7°C 90% 5.6 mph NNW9.0 kmh NNW 5.7 mph9.2 kmh 29.67 in1004.7 mb 0.00 in0.0 mm 0.00 in0.0 mm 0.08 in2.0 mm
04:43 AM 36.1°F2.3°C 40.1°F4.5°C 89% 3.2 mph SW5.1 kmh SW 3.3 mph5.3 kmh 29.67 in1004.7 mb 0.00 in0.0 mm 0.00 in0.0 mm 0.08 in2.0 mm
04:46 AM 36.1°F2.3°C 40.3°F4.6°C 90% 5.7 mph NNW9.2 kmh NNW 5.7 mph9.2 kmh 29.67 in1004.7 mb 0.00 in0.0 mm 0.00 in0.0 mm 0.08 in2.0 mm
04:49 AM 36.1°F2.3°C 40.0°F4.4°C 90% 2.0 mph W3.2 kmh W 2.0 mph3.2 kmh 29.67 in1004.7 mb 0.00 in0.0 mm 0.00 in0.0 mm 0.10 in2.5 mm
04:52 AM 35.9°F2.2°C 40.2°F4.6°C 90% 2.8 mph W4.5 kmh W 2.9 mph4.7 kmh 29.67 in1004.7 mb 0.00 in0.0 mm 0.00 in0.0 mm 0.10 in2.5 mm
04:55 AM 35.9°F2.2°C 40.0°F4.4°C 90% 4.0 mph WSW6.4 kmh WSW 4.1 mph6.6 kmh 29.67 in1004.7 mb 0.00 in0.0 mm 0.00 in0.0 mm 0.10 in2.5 mm
04:58 AM 35.9°F2.2°C 40.1°F4.5°C 89% 4.8 mph W7.7 kmh W 4.8 mph7.7 kmh 29.67 in1004.7 mb 0.00 in0.0 mm 0.00 in0.0 mm 0.10 in2.5 mm
05:01 AM 35.9°F2.2°C 40.0°F4.4°C 90% 2.0 mph WSW3.2 kmh WSW 2.0 mph3.2 kmh 29.67 in1004.7 mb 0.00 in0.0 mm 0.00 in0.0 mm 0.10 in2.5 mm
05:04 AM 35.9°F2.2°C 40.1°F4.5°C 90% 3.6 mph WSW5.8 kmh WSW 3.7 mph6.0 kmh 29.67 in1004.7 mb 0.00 in0.0 mm 0.00 in0.0 mm 0.12 in3.0 mm
05:07 AM 35.9°F2.2°C 40.1°F4.5°C 89% 2.8 mph W4.5 kmh W 2.9 mph4.7 kmh 29.67 in1004.7 mb 0.00 in0.0 mm 0.00 in0.0 mm 0.12 in3.0 mm
05:10 AM 35.8°F2.1°C 40.2°F4.6°C 90% 2.4 mph W3.9 kmh W 2.4 mph3.9 kmh 29.67 in1004.7 mb 0.00 in0.0 mm 0.00 in0.0 mm 0.12 in3.0 mm
05:13 AM 35.8°F2.1°C 40.1°F4.5°C 89% 2.0 mph NNW3.2 kmh NNW 2.0 mph3.2 kmh 29.67 in1004.7 mb 0.00 in0.0 mm 0.00 in0.0 mm 0.12 in3.0 mm
05:16 AM 35.8°F2.1°C 40.2°F4.6°C 90% 4.4 mph W7.1 kmh W 4.5 mph7.2 kmh 29.66 in1004.4 mb 0.00 in0.0 mm 0.00 in0.0 mm 0.12 in3.0 mm
05:19 AM 35.8°F2.1°C 39.9°F4.4°C 88% 2.0 mph W3.2 kmh W 2.0 mph3.2 kmh 29.66 in1004.4 mb 0.00 in0.0 mm 0.00 in0.0 mm 0.12 in3.0 mm
05:22 AM 35.7°F2.1°C 40.0°F4.4°C 89% 1.6 mph W2.6 kmh W 1.6 mph2.6 kmh 29.66 in1004.4 mb 0.00 in0.0 mm 0.00 in0.0 mm 0.14 in3.6 mm
05:25 AM 35.7°F2.1°C 40.2°F4.6°C 89% 0.8 mph WSW1.3 kmh WSW 0.8 mph1.3 kmh 29.66 in1004.4 mb 0.00 in0.0 mm 0.00 in0.0 mm 0.14 in3.6 mm
05:28 AM 35.7°F2.1°C 39.9°F4.4°C 89% 2.4 mph NNW3.9 kmh NNW 2.4 mph3.9 kmh 29.66 in1004.4 mb 0.00 in0.0 mm 0.00 in0.0 mm 0.14 in3.6 mm
05:31 AM 35.7°F2.1°C 40.1°F4.5°C 89% 4.8 mph NNW7.7 kmh NNW 4.9 mph7.9 kmh 29.66 in1004.4 mb 0.00 in0.0 mm 0.00 in0.0 mm 0.14 in3.6 mm
05:34 AM 35.6°F2.0°C 40.0°F4.4°C 89% 4.0 mph W6.4 kmh W 4.1 mph6.6 kmh 29.66 in1004.4 mb 0.00 in0.0 mm 0.00 in0.0 mm 0.14 in3.6 mm
05:37 AM 35.6°F2.0°C 39.6°F4.2°C 89% 2.8 mph W4.5 kmh W 2.9 mph4.7 kmh 29.65 in1004.1 mb 0.00 in0.0 mm 0.00 in0.0 mm 0.14 in3.6 mm
05:40 AM 35.6°F2.0°C 39.7°F4.3°C 89% 2.0 mph W3.2 kmh W 2.0 mph3.2 kmh 29.65 in1004.1 mb 0.00 in0.0 mm 0.00 in0.0 mm 0.14 in3.6 mm
05:43 AM 35.6°F2.0°C 39.8°F4.3°C 89% 1.6 mph W2.6 kmh W 1.6 mph2.6 kmh 29.65 in1004.1 mb 0.00 in0.0 mm 0.00 in0.0 mm 0.16 in4.1 mm
05:46 AM 35.7°F2.1°C 40.0°F4.4°C 90% 0.4 mph W0.6 kmh W 0.4 mph0.6 kmh 29.65 in1004.1 mb 0.00 in0.0 mm 0.00 in0.0 mm 0.16 in4.1 mm
05:49 AM 35.6°F2.0°C 39.9°F4.4°C 89% 4.0 mph W6.4 kmh W 4.1 mph6.6 kmh 29.65 in1004.1 mb 0.00 in0.0 mm 0.00 in0.0 mm 0.16 in4.1 mm
05:52 AM 35.6°F2.0°C 39.9°F4.4°C 89% 2.4 mph WNW3.9 kmh WNW 2.4 mph3.9 kmh 29.65 in1004.1 mb 0.00 in0.0 mm 0.00 in0.0 mm 0.16 in4.1 mm
05:55 AM 35.7°F2.1°C 40.1°F4.5°C 90% 0.8 mph W1.3 kmh W 0.8 mph1.3 kmh 29.66 in1004.4 mb 0.00 in0.0 mm 0.00 in0.0 mm 0.16 in4.1 mm
05:58 AM 35.7°F2.1°C 39.6°F4.2°C 88% 1.2 mph W1.9 kmh W 1.2 mph1.9 kmh 29.65 in1004.1 mb 0.00 in0.0 mm 0.00 in0.0 mm 0.16 in4.1 mm
06:01 AM 35.7°F2.1°C 39.7°F4.3°C 89% 2.4 mph WSW3.9 kmh WSW 2.4 mph3.9 kmh 29.65 in1004.1 mb 0.00 in0.0 mm 0.00 in0.0 mm 0.16 in4.1 mm
06:04 AM 35.7°F2.1°C 40.0°F4.4°C 90% 1.2 mph W1.9 kmh W 1.2 mph1.9 kmh 29.65 in1004.1 mb 0.00 in0.0 mm 0.00 in0.0 mm 0.16 in4.1 mm
06:07 AM 35.7°F2.1°C 39.9°F4.4°C 90% 2.8 mph W4.5 kmh W 2.8 mph4.5 kmh 29.65 in1004.1 mb 0.00 in0.0 mm 0.00 in0.0 mm 0.18 in4.6 mm
06:10 AM 35.7°F2.1°C 39.8°F4.3°C 90% 4.0 mph W6.4 kmh W 4.1 mph6.6 kmh 29.65 in1004.1 mb 0.00 in0.0 mm 0.00 in0.0 mm 0.18 in4.6 mm
06:13 AM 35.7°F2.1°C 39.9°F4.4°C 90% 1.6 mph WSW2.6 kmh WSW 1.6 mph2.6 kmh 29.65 in1004.1 mb 0.00 in0.0 mm 0.00 in0.0 mm 0.18 in4.6 mm
06:16 AM 35.8°F2.1°C 39.8°F4.3°C 89% 2.0 mph W3.2 kmh W 2.0 mph3.2 kmh 29.65 in1004.1 mb 0.00 in0.0 mm 0.00 in0.0 mm 0.18 in4.6 mm
06:19 AM 35.8°F2.1°C 39.8°F4.3°C 90% 0.4 mph WSW0.6 kmh WSW 0.4 mph0.6 kmh 29.65 in1004.1 mb 0.00 in0.0 mm 0.00 in0.0 mm 0.18 in4.6 mm
06:22 AM 35.8°F2.1°C 39.8°F4.3°C 89% 2.4 mph W3.9 kmh W 2.4 mph3.9 kmh 29.64 in1003.7 mb 0.00 in0.0 mm 0.00 in0.0 mm 0.18 in4.6 mm
06:25 AM 35.8°F2.1°C 39.9°F4.4°C 90% 1.2 mph SW1.9 kmh SW 1.2 mph1.9 kmh 29.64 in1003.7 mb 0.00 in0.0 mm 0.00 in0.0 mm 0.18 in4.6 mm
06:28 AM 35.8°F2.1°C 39.9°F4.4°C 89% 2.0 mph SW3.2 kmh SW 2.0 mph3.2 kmh 29.64 in1003.7 mb 0.00 in0.0 mm 0.00 in0.0 mm 0.20 in5.1 mm
06:31 AM 35.8°F2.1°C 39.8°F4.3°C 90% 1.6 mph W2.6 kmh W 1.6 mph2.6 kmh 29.64 in1003.7 mb 0.00 in0.0 mm 0.00 in0.0 mm 0.20 in5.1 mm
06:34 AM 35.8°F2.1°C 39.7°F4.3°C 89% 5.2 mph WSW8.4 kmh WSW 5.2 mph8.4 kmh 29.64 in1003.7 mb 0.00 in0.0 mm 0.00 in0.0 mm 0.20 in5.1 mm
06:37 AM 35.8°F2.1°C 40.0°F4.4°C 90% 2.4 mph W3.9 kmh W 2.4 mph3.9 kmh 29.64 in1003.7 mb 0.00 in0.0 mm 0.00 in0.0 mm 0.20 in5.1 mm
06:40 AM 35.8°F2.1°C 39.9°F4.4°C 90% 2.0 mph WSW3.2 kmh WSW 2.0 mph3.2 kmh 29.64 in1003.7 mb 0.00 in0.0 mm 0.00 in0.0 mm 0.20 in5.1 mm
06:43 AM 35.8°F2.1°C 40.0°F4.4°C 90% 3.6 mph WSW5.8 kmh WSW 3.7 mph6.0 kmh 29.64 in1003.7 mb 0.00 in0.0 mm 0.00 in0.0 mm 0.20 in5.1 mm
06:46 AM 35.8°F2.1°C 39.7°F4.3°C 90% 4.0 mph NNW6.4 kmh NNW 4.0 mph6.4 kmh 29.64 in1003.7 mb 0.00 in0.0 mm 0.00 in0.0 mm 0.22 in5.6 mm
06:49 AM 35.7°F2.1°C 39.9°F4.4°C 90% 1.6 mph W2.6 kmh W 1.6 mph2.6 kmh 29.64 in1003.7 mb 0.00 in0.0 mm 0.00 in0.0 mm 0.22 in5.6 mm
06:52 AM 35.7°F2.1°C 39.9°F4.4°C 90% 2.8 mph WSW4.5 kmh WSW 2.9 mph4.7 kmh 29.64 in1003.7 mb 0.00 in0.0 mm 0.00 in0.0 mm 0.22 in5.6 mm
06:55 AM 35.8°F2.1°C 39.8°F4.3°C 90% 3.6 mph W5.8 kmh W 3.6 mph5.8 kmh 29.64 in1003.7 mb 0.00 in0.0 mm 0.00 in0.0 mm 0.22 in5.6 mm
06:58 AM 35.8°F2.1°C 40.0°F4.4°C 90% 1.2 mph SW1.9 kmh SW 1.2 mph1.9 kmh 29.64 in1003.7 mb 0.00 in0.0 mm 0.00 in0.0 mm 0.22 in5.6 mm
07:04 AM 35.8°F2.1°C 39.9°F4.4°C 90% 1.2 mph NNW1.9 kmh NNW 1.2 mph1.9 kmh 29.64 in1003.7 mb 0.00 in0.0 mm 0.00 in0.0 mm 0.22 in5.6 mm
07:07 AM 35.8°F2.1°C 39.9°F4.4°C 90% 2.0 mph W3.2 kmh W 2.0 mph3.2 kmh 29.64 in1003.7 mb 0.00 in0.0 mm 0.00 in0.0 mm 0.24 in6.1 mm
07:10 AM 35.7°F2.1°C 40.2°F4.6°C 90% Calm Calm -- 29.64 in1003.7 mb 0.00 in0.0 mm 0.00 in0.0 mm 0.24 in6.1 mm
07:13 AM 35.8°F2.1°C 40.0°F4.4°C 90% Calm Calm -- 29.64 in1003.7 mb 0.00 in0.0 mm 0.00 in0.0 mm 0.24 in6.1 mm
07:16 AM 35.8°F2.1°C 40.1°F4.5°C 90% 1.2 mph W1.9 kmh W 1.2 mph1.9 kmh 29.64 in1003.7 mb 0.00 in0.0 mm 0.00 in0.0 mm 0.24 in6.1 mm
07:19 AM 35.8°F2.1°C 39.8°F4.3°C 90% 1.2 mph W1.9 kmh W 1.2 mph1.9 kmh 29.64 in1003.7 mb 0.00 in0.0 mm 0.00 in0.0 mm 0.24 in6.1 mm
07:22 AM 35.8°F2.1°C 40.1°F4.5°C 90% 4.4 mph W7.1 kmh W 4.4 mph7.1 kmh 29.64 in1003.7 mb 0.00 in0.0 mm 0.00 in0.0 mm 0.26 in6.6 mm
07:25 AM 35.8°F2.1°C 40.0°F4.4°C 90% 1.6 mph W2.6 kmh W 1.6 mph2.6 kmh 29.64 in1003.7 mb 0.00 in0.0 mm 0.00 in0.0 mm 0.26 in6.6 mm
07:28 AM 35.8°F2.1°C 40.1°F4.5°C 90% 2.0 mph W3.2 kmh W 2.0 mph3.2 kmh 29.64 in1003.7 mb 0.00 in0.0 mm 0.00 in0.0 mm 0.26 in6.6 mm
07:31 AM 35.8°F2.1°C 40.0°F4.4°C 90% 2.0 mph NNW3.2 kmh NNW 2.0 mph3.2 kmh 29.64 in1003.7 mb 0.00 in0.0 mm 0.00 in0.0 mm 0.26 in6.6 mm
07:34 AM 35.8°F2.1°C 40.0°F4.4°C 90% 0.4 mph WSW0.6 kmh WSW 0.4 mph0.6 kmh 29.64 in1003.7 mb 0.00 in0.0 mm 0.00 in0.0 mm 0.28 in7.1 mm
07:37 AM 35.9°F2.2°C 40.0°F4.4°C 91% 3.6 mph W5.8 kmh W 3.7 mph6.0 kmh 29.64 in1003.7 mb 0.00 in0.0 mm 0.00 in0.0 mm 0.28 in7.1 mm
07:40 AM 35.9°F2.2°C 40.4°F4.7°C 90% 4.0 mph WSW6.4 kmh WSW 4.0 mph6.4 kmh 29.64 in1003.7 mb 0.00 in0.0 mm 0.00 in0.0 mm 0.28 in7.1 mm
07:43 AM 35.9°F2.2°C 40.0°F4.4°C 90% 5.6 mph W9.0 kmh W 5.6 mph9.0 kmh 29.64 in1003.7 mb 0.00 in0.0 mm 0.00 in0.0 mm 0.28 in7.1 mm
07:46 AM 35.9°F2.2°C 40.3°F4.6°C 91% 2.8 mph WSW4.5 kmh WSW 2.8 mph4.5 kmh 29.64 in1003.7 mb 0.00 in0.0 mm 0.00 in0.0 mm 0.28 in7.1 mm
07:49 AM 35.9°F2.2°C 40.1°F4.5°C 90% 1.6 mph NNW2.6 kmh NNW 1.6 mph2.6 kmh 29.64 in1003.7 mb 0.00 in0.0 mm 0.00 in0.0 mm 0.30 in7.6 mm
07:52 AM 35.9°F2.2°C 40.3°F4.6°C 91% Calm Calm -- 29.64 in1003.7 mb 0.00 in0.0 mm 0.00 in0.0 mm 0.30 in7.6 mm
07:55 AM 36.1°F2.3°C 40.1°F4.5°C 90% 0.4 mph W0.6 kmh W 0.4 mph0.6 kmh 29.64 in1003.7 mb 0.00 in0.0 mm 0.00 in0.0 mm 0.30 in7.6 mm
07:58 AM 36.1°F2.3°C 39.9°F4.4°C 90% 2.4 mph W3.9 kmh W 2.4 mph3.9 kmh 29.64 in1003.7 mb 0.00 in0.0 mm 0.00 in0.0 mm 0.30 in7.6 mm
08:01 AM 36.1°F2.3°C 40.1°F4.5°C 90% 3.2 mph NNW5.1 kmh NNW 3.3 mph5.3 kmh 29.64 in1003.7 mb 0.00 in0.0 mm 0.00 in0.0 mm 0.32 in8.1 mm
08:04 AM 36.2°F2.3°C 40.1°F4.5°C 91% 4.8 mph W7.7 kmh W 4.8 mph7.7 kmh 29.64 in1003.7 mb 0.00 in0.0 mm 0.00 in0.0 mm 0.32 in8.1 mm
08:07 AM 36.2°F2.3°C 40.1°F4.5°C 91% 1.6 mph SW2.6 kmh SW 1.6 mph2.6 kmh 29.64 in1003.7 mb 0.00 in0.0 mm 0.00 in0.0 mm 0.32 in8.1 mm
08:10 AM 36.2°F2.3°C 40.4°F4.7°C 91% 1.6 mph WSW2.6 kmh WSW 1.6 mph2.6 kmh 29.64 in1003.7 mb 0.00 in0.0 mm 0.00 in0.0 mm 0.32 in8.1 mm
08:13 AM 36.2°F2.3°C 40.4°F4.7°C 91% 1.2 mph SW1.9 kmh SW 1.2 mph1.9 kmh 29.64 in1003.7 mb 0.00 in0.0 mm 0.00 in0.0 mm 0.34 in8.6 mm
08:16 AM 36.3°F2.4°C 40.4°F4.7°C 91% 2.0 mph W3.2 kmh W 2.0 mph3.2 kmh 29.64 in1003.7 mb 0.00 in0.0 mm 0.00 in0.0 mm 0.34 in8.6 mm
08:19 AM 36.3°F2.4°C 40.3°F4.6°C 91% 2.8 mph W4.5 kmh W 2.9 mph4.7 kmh 29.64 in1003.7 mb 0.00 in0.0 mm 0.00 in0.0 mm 0.34 in8.6 mm
08:22 AM 36.3°F2.4°C 40.5°F4.7°C 91% 2.8 mph W4.5 kmh W 2.9 mph4.7 kmh 29.64 in1003.7 mb 0.00 in0.0 mm 0.00 in0.0 mm 0.34 in8.6 mm
08:25 AM 36.4°F2.4°C 40.4°F4.7°C 91% 0.8 mph NNW1.3 kmh NNW 0.8 mph1.3 kmh 29.64 in1003.7 mb 0.00 in0.0 mm 0.00 in0.0 mm 0.36 in9.1 mm
08:28 AM 36.4°F2.4°C 40.5°F4.7°C 91% 2.4 mph W3.9 kmh W 2.4 mph3.9 kmh 29.64 in1003.7 mb 0.00 in0.0 mm 0.00 in0.0 mm 0.36 in9.1 mm
08:31 AM 36.4°F2.4°C 40.3°F4.6°C 91% 1.2 mph W1.9 kmh W 1.2 mph1.9 kmh 29.64 in1003.7 mb 0.00 in0.0 mm 0.00 in0.0 mm 0.36 in9.1 mm
08:34 AM 36.4°F2.4°C 40.5°F4.7°C 91% 3.2 mph WSW5.1 kmh WSW 3.3 mph5.3 kmh 29.64 in1003.7 mb 0.00 in0.0 mm 0.00 in0.0 mm 0.36 in9.1 mm
08:37 AM 36.5°F2.5°C 40.4°F4.7°C 91% 4.0 mph W6.4 kmh W 4.0 mph6.4 kmh 29.64 in1003.7 mb 0.00 in0.0 mm 0.00 in0.0 mm 0.36 in9.1 mm
08:40 AM 36.5°F2.5°C 40.7°F4.8°C 91% 3.2 mph W5.1 kmh W 3.2 mph5.1 kmh 29.64 in1003.7 mb 0.00 in0.0 mm 0.00 in0.0 mm 0.38 in9.7 mm
08:43 AM 36.5°F2.5°C 40.5°F4.7°C 91% 2.8 mph W4.5 kmh W 2.8 mph4.5 kmh 29.64 in1003.7 mb 0.00 in0.0 mm 0.00 in0.0 mm 0.38 in9.7 mm
08:49 AM 36.6°F2.6°C 40.6°F4.8°C 91% 4.8 mph WNW7.7 kmh WNW 4.8 mph7.7 kmh 29.64 in1003.7 mb 0.00 in0.0 mm 0.00 in0.0 mm 0.38 in9.7 mm
08:52 AM 36.6°F2.6°C 40.5°F4.7°C 91% 2.8 mph W4.5 kmh W 2.9 mph4.7 kmh 29.64 in1003.7 mb 0.00 in0.0 mm 0.00 in0.0 mm 0.38 in9.7 mm
08:55 AM 36.6°F2.6°C 40.6°F4.8°C 91% 1.6 mph W2.6 kmh W 1.6 mph2.6 kmh 29.64 in1003.7 mb 0.00 in0.0 mm 0.00 in0.0 mm 0.38 in9.7 mm
08:58 AM 36.6°F2.6°C 40.6°F4.8°C 91% 4.9 mph WSW7.9 kmh WSW 4.9 mph7.9 kmh 29.63 in1003.4 mb 0.00 in0.0 mm 0.00 in0.0 mm 0.40 in10.2 mm
09:01 AM 36.7°F2.6°C 40.4°F4.7°C 91% 1.2 mph WSW1.9 kmh WSW 1.2 mph1.9 kmh 29.63 in1003.4 mb 0.00 in0.0 mm 0.00 in0.0 mm 0.40 in10.2 mm
09:04 AM 36.7°F2.6°C 40.7°F4.8°C 91% 3.6 mph NNW5.8 kmh NNW 3.7 mph6.0 kmh 29.63 in1003.4 mb 0.00 in0.0 mm 0.00 in0.0 mm 0.40 in10.2 mm
09:07 AM 36.8°F2.7°C 40.6°F4.8°C 91% 4.8 mph WSW7.7 kmh WSW 4.9 mph7.9 kmh 29.64 in1003.7 mb 0.00 in0.0 mm 0.00 in0.0 mm 0.40 in10.2 mm
09:10 AM 36.8°F2.7°C 40.6°F4.8°C 91% 6.0 mph W9.7 kmh W 6.0 mph9.7 kmh 29.64 in1003.7 mb 0.00 in0.0 mm 0.00 in0.0 mm 0.40 in10.2 mm
09:13 AM 36.8°F2.7°C 40.9°F4.9°C 91% 4.9 mph W7.9 kmh W 4.9 mph7.9 kmh 29.64 in1003.7 mb 0.00 in0.0 mm 0.00 in0.0 mm 0.40 in10.2 mm
09:16 AM 37.0°F2.8°C 40.8°F4.9°C 91% 2.4 mph W3.9 kmh W 2.4 mph3.9 kmh 29.64 in1003.7 mb 0.00 in0.0 mm 0.00 in0.0 mm 0.40 in10.2 mm
09:19 AM 37.0°F2.8°C 40.9°F4.9°C 91% 2.0 mph W3.2 kmh W 2.0 mph3.2 kmh 29.64 in1003.7 mb 0.00 in0.0 mm 0.00 in0.0 mm 0.40 in10.2 mm
09:22 AM 37.0°F2.8°C 40.7°F4.8°C 91% 3.2 mph W5.1 kmh W 3.2 mph5.1 kmh 29.64 in1003.7 mb 0.00 in0.0 mm 0.00 in0.0 mm 0.40 in10.2 mm
09:25 AM 37.1°F2.8°C 40.7°F4.8°C 91% 4.8 mph W7.7 kmh W 4.8 mph7.7 kmh 29.63 in1003.4 mb 0.00 in0.0 mm 0.00 in0.0 mm 0.40 in10.2 mm
09:28 AM 37.2°F2.9°C 40.7°F4.8°C 91% 2.4 mph NW3.9 kmh NW 2.4 mph3.9 kmh 29.63 in1003.4 mb 0.00 in0.0 mm 0.00 in0.0 mm 0.40 in10.2 mm
09:31 AM 37.2°F2.9°C 40.6°F4.8°C 90% 2.8 mph W4.5 kmh W 2.9 mph4.7 kmh 29.64 in1003.7 mb 0.00 in0.0 mm 0.00 in0.0 mm 0.40 in10.2 mm
09:34 AM 37.2°F2.9°C 40.9°F4.9°C 91% 6.1 mph W9.8 kmh W 6.1 mph9.8 kmh 29.63 in1003.4 mb 0.00 in0.0 mm 0.00 in0.0 mm 0.40 in10.2 mm
09:37 AM 37.2°F2.9°C 41.1°F5.1°C 91% 2.4 mph W3.9 kmh W 2.4 mph3.9 kmh 29.64 in1003.7 mb 0.00 in0.0 mm 0.00 in0.0 mm 0.40 in10.2 mm
09:40 AM 37.2°F2.9°C 40.9°F4.9°C 91% 6.1 mph NW9.8 kmh NW 6.1 mph9.8 kmh 29.63 in1003.4 mb 0.00 in0.0 mm 0.00 in0.0 mm 0.40 in10.2 mm
09:43 AM 37.2°F2.9°C 40.9°F4.9°C 91% 5.2 mph W8.4 kmh W 5.2 mph8.4 kmh 29.64 in1003.7 mb 0.00 in0.0 mm 0.00 in0.0 mm 0.42 in10.7 mm
09:46 AM 37.2°F2.9°C 40.8°F4.9°C 91% Calm Calm -- 29.64 in1003.7 mb 0.00 in0.0 mm 0.00 in0.0 mm 0.42 in10.7 mm
09:49 AM 37.2°F2.9°C 40.9°F4.9°C 91% 2.0 mph NW3.2 kmh NW 2.0 mph3.2 kmh 29.64 in1003.7 mb 0.00 in0.0 mm 0.00 in0.0 mm 0.42 in10.7 mm
09:52 AM 37.2°F2.9°C 41.1°F5.1°C 91% 6.0 mph WNW9.7 kmh WNW 6.1 mph9.8 kmh 29.64 in1003.7 mb 0.00 in0.0 mm 0.00 in0.0 mm 0.42 in10.7 mm
09:55 AM 37.1°F2.8°C 40.9°F4.9°C 91% 3.6 mph WSW5.8 kmh WSW 3.7 mph6.0 kmh 29.64 in1003.7 mb 0.00 in0.0 mm 0.00 in0.0 mm 0.42 in10.7 mm
09:58 AM 37.2°F2.9°C 41.1°F5.1°C 91% 2.8 mph W4.5 kmh W 2.9 mph4.7 kmh 29.64 in1003.7 mb 0.00 in0.0 mm 0.00 in0.0 mm 0.42 in10.7 mm
10:01 AM 37.2°F2.9°C 40.9°F4.9°C 91% 6.9 mph NW11.1 kmh NW 6.9 mph11.1 kmh 29.64 in1003.7 mb 0.00 in0.0 mm 0.00 in0.0 mm 0.42 in10.7 mm
10:04 AM 37.2°F2.9°C 41.2°F5.1°C 91% 0.8 mph W1.3 kmh W 0.8 mph1.3 kmh 29.64 in1003.7 mb 0.00 in0.0 mm 0.00 in0.0 mm 0.42 in10.7 mm
10:07 AM 37.3°F2.9°C 41.1°F5.1°C 91% 2.8 mph WNW4.5 kmh WNW 2.8 mph4.5 kmh 29.64 in1003.7 mb 0.00 in0.0 mm 0.00 in0.0 mm 0.42 in10.7 mm
10:10 AM 37.2°F2.9°C 41.3°F5.2°C 91% 3.6 mph NW5.8 kmh NW 3.6 mph5.8 kmh 29.64 in1003.7 mb 0.00 in0.0 mm 0.00 in0.0 mm 0.42 in10.7 mm
10:13 AM 37.2°F2.9°C 41.0°F5.0°C 91% 1.6 mph NNW2.6 kmh NNW 1.6 mph2.6 kmh 29.64 in1003.7 mb 0.00 in0.0 mm 0.00 in0.0 mm 0.42 in10.7 mm
10:16 AM 37.3°F2.9°C 41.1°F5.1°C 91% 4.9 mph NNW7.9 kmh NNW 4.9 mph7.9 kmh 29.64 in1003.7 mb 0.00 in0.0 mm 0.00 in0.0 mm 0.42 in10.7 mm
10:19 AM 37.3°F2.9°C 41.0°F5.0°C 91% 3.2 mph WNW5.1 kmh WNW 3.3 mph5.3 kmh 29.64 in1003.7 mb 0.00 in0.0 mm 0.00 in0.0 mm 0.42 in10.7 mm
10:22 AM 37.3°F2.9°C 41.3°F5.2°C 92% 6.1 mph W9.8 kmh W 6.1 mph9.8 kmh 29.64 in1003.7 mb 0.00 in0.0 mm 0.00 in0.0 mm 0.42 in10.7 mm
10:25 AM 37.2°F2.9°C 41.2°F5.1°C 91% 4.0 mph W6.4 kmh W 4.0 mph6.4 kmh 29.64 in1003.7 mb 0.00 in0.0 mm 0.00 in0.0 mm 0.44 in11.2 mm
10:28 AM 37.3°F2.9°C 41.3°F5.2°C 91% 2.4 mph W3.9 kmh W 2.4 mph3.9 kmh 29.64 in1003.7 mb 0.00 in0.0 mm 0.00 in0.0 mm 0.44 in11.2 mm
10:31 AM 37.4°F3.0°C 41.3°F5.2°C 91% 0.8 mph WSW1.3 kmh WSW 0.8 mph1.3 kmh 29.64 in1003.7 mb 0.00 in0.0 mm 0.00 in0.0 mm 0.44 in11.2 mm
10:34 AM 37.4°F3.0°C 41.2°F5.1°C 91% 1.2 mph W1.9 kmh W 1.2 mph1.9 kmh 29.64 in1003.7 mb 0.00 in0.0 mm 0.00 in0.0 mm 0.44 in11.2 mm
10:37 AM 37.4°F3.0°C 41.3°F5.2°C 91% 4.4 mph NNW7.1 kmh NNW 4.4 mph7.1 kmh 29.64 in1003.7 mb 0.00 in0.0 mm 0.00 in0.0 mm 0.44 in11.2 mm
10:40 AM 37.5°F3.1°C 41.5°F5.3°C 91% 1.6 mph NW2.6 kmh NW 1.6 mph2.6 kmh 29.64 in1003.7 mb 0.00 in0.0 mm 0.00 in0.0 mm 0.44 in11.2 mm
10:43 AM 37.5°F3.1°C 41.4°F5.2°C 91% 1.2 mph W1.9 kmh W 1.2 mph1.9 kmh 29.64 in1003.7 mb 0.00 in0.0 mm 0.00 in0.0 mm 0.44 in11.2 mm
10:46 AM 37.5°F3.1°C 41.2°F5.1°C 91% 3.2 mph W5.1 kmh W 3.2 mph5.1 kmh 29.64 in1003.7 mb 0.00 in0.0 mm 0.00 in0.0 mm 0.44 in11.2 mm
10:49 AM 37.5°F3.1°C 41.2°F5.1°C 91% 0.8 mph W1.3 kmh W 0.8 mph1.3 kmh 29.64 in1003.7 mb 0.00 in0.0 mm 0.00 in0.0 mm 0.44 in11.2 mm
10:52 AM 37.5°F3.1°C 41.2°F5.1°C 91% 2.0 mph NNW3.2 kmh NNW 2.0 mph3.2 kmh 29.64 in1003.7 mb 0.00 in0.0 mm 0.00 in0.0 mm 0.44 in11.2 mm
10:55 AM 37.5°F3.1°C 41.4°F5.2°C 91% 4.8 mph WNW7.7 kmh WNW 4.8 mph7.7 kmh 29.64 in1003.7 mb 0.00 in0.0 mm 0.00 in0.0 mm 0.44 in11.2 mm
10:58 AM 37.5°F3.1°C 41.3°F5.2°C 91% 3.2 mph WNW5.1 kmh WNW 3.3 mph5.3 kmh 29.64 in1003.7 mb 0.00 in0.0 mm 0.00 in0.0 mm 0.44 in11.2 mm
11:01 AM 37.5°F3.1°C 41.3°F5.2°C 91% 1.2 mph WNW1.9 kmh WNW 1.2 mph1.9 kmh 29.64 in1003.7 mb 0.00 in0.0 mm 0.00 in0.0 mm 0.44 in11.2 mm
11:04 AM 37.5°F3.1°C 41.5°F5.3°C 91% 1.2 mph NNW1.9 kmh NNW 1.2 mph1.9 kmh 29.64 in1003.7 mb 0.00 in0.0 mm 0.00 in0.0 mm 0.44 in11.2 mm
11:07 AM 37.5°F3.1°C 41.5°F5.3°C 91% 3.2 mph W5.1 kmh W 3.3 mph5.3 kmh 29.64 in1003.7 mb 0.00 in0.0 mm 0.00 in0.0 mm 0.44 in11.2 mm
11:10 AM 37.5°F3.1°C 41.5°F5.3°C 92% 2.0 mph W3.2 kmh W 2.0 mph3.2 kmh 29.64 in1003.7 mb 0.00 in0.0 mm 0.00 in0.0 mm 0.44 in11.2 mm
11:13 AM 37.6°F3.1°C 41.7°F5.4°C 91% 3.7 mph NW6.0 kmh NW 3.7 mph6.0 kmh 29.64 in1003.7 mb 0.00 in0.0 mm 0.00 in0.0 mm 0.44 in11.2 mm
11:16 AM 37.6°F3.1°C 41.5°F5.3°C 91% 1.2 mph W1.9 kmh W 1.2 mph1.9 kmh 29.64 in1003.7 mb 0.00 in0.0 mm 0.00 in0.0 mm 0.44 in11.2 mm
11:19 AM 37.6°F3.1°C 41.6°F5.3°C 91% 5.2 mph NNW8.4 kmh NNW 5.3 mph8.5 kmh 29.64 in1003.7 mb 0.00 in0.0 mm 0.00 in0.0 mm 0.44 in11.2 mm
11:22 AM 37.6°F3.1°C 41.4°F5.2°C 91% 4.9 mph NW7.9 kmh NW 4.9 mph7.9 kmh 29.64 in1003.7 mb 0.00 in0.0 mm 0.00 in0.0 mm 0.44 in11.2 mm
11:25 AM 37.6°F3.1°C 41.6°F5.3°C 91% 5.3 mph W8.5 kmh W 5.3 mph8.5 kmh 29.64 in1003.7 mb 0.00 in0.0 mm 0.00 in0.0 mm 0.44 in11.2 mm
11:28 AM 37.6°F3.1°C 41.5°F5.3°C 91% 6.3 mph NW10.1 kmh NW 6.3 mph10.1 kmh 29.64 in1003.7 mb 0.00 in0.0 mm 0.00 in0.0 mm 0.44 in11.2 mm
11:31 AM 37.6°F3.1°C 41.6°F5.3°C 91% 2.8 mph NW4.5 kmh NW 2.9 mph4.7 kmh 29.64 in1003.7 mb 0.00 in0.0 mm 0.00 in0.0 mm 0.44 in11.2 mm
11:34 AM 37.7°F3.2°C 41.3°F5.2°C 91% 3.6 mph WNW5.8 kmh WNW 3.7 mph6.0 kmh 29.64 in1003.7 mb 0.00 in0.0 mm 0.00 in0.0 mm 0.44 in11.2 mm
11:40 AM 37.7°F3.2°C 41.5°F5.3°C 91% 2.4 mph NNW3.9 kmh NNW 2.4 mph3.9 kmh 29.63 in1003.4 mb 0.00 in0.0 mm 0.00 in0.0 mm 0.44 in11.2 mm
11:43 AM 37.7°F3.2°C 41.5°F5.3°C 91% 1.6 mph WNW2.6 kmh WNW 1.6 mph2.6 kmh 29.64 in1003.7 mb 0.00 in0.0 mm 0.00 in0.0 mm 0.44 in11.2 mm
11:46 AM 37.7°F3.2°C 41.6°F5.3°C 91% 0.4 mph WNW0.6 kmh WNW 0.4 mph0.6 kmh 29.63 in1003.4 mb 0.00 in0.0 mm 0.00 in0.0 mm 0.44 in11.2 mm
11:49 AM 37.7°F3.2°C 41.6°F5.3°C 91% 3.2 mph NNW5.1 kmh NNW 3.3 mph5.3 kmh 29.63 in1003.4 mb 0.00 in0.0 mm 0.00 in0.0 mm 0.44 in11.2 mm
11:52 AM 37.9°F3.3°C 41.5°F5.3°C 91% 5.2 mph WNW8.4 kmh WNW 5.3 mph8.5 kmh 29.63 in1003.4 mb 0.00 in0.0 mm 0.00 in0.0 mm 0.44 in11.2 mm
11:55 AM 37.9°F3.3°C 41.5°F5.3°C 91% 3.6 mph NW5.8 kmh NW 3.7 mph6.0 kmh 29.63 in1003.4 mb 0.00 in0.0 mm 0.00 in0.0 mm 0.44 in11.2 mm
11:58 AM 38.0°F3.3°C 41.5°F5.3°C 91% 2.0 mph W3.2 kmh W 2.0 mph3.2 kmh 29.63 in1003.4 mb 0.00 in0.0 mm 0.00 in0.0 mm 0.44 in11.2 mm
12:01 PM 38.0°F3.3°C 41.4°F5.2°C 91% 2.0 mph W3.2 kmh W 2.0 mph3.2 kmh 29.63 in1003.4 mb 0.00 in0.0 mm 0.00 in0.0 mm 0.44 in11.2 mm
12:04 PM 38.0°F3.3°C 41.6°F5.3°C 91% 1.2 mph WNW1.9 kmh WNW 1.2 mph1.9 kmh 29.63 in1003.4 mb 0.00 in0.0 mm 0.00 in0.0 mm 0.44 in11.2 mm
12:07 PM 38.0°F3.3°C 41.5°F5.3°C 91% 2.8 mph W4.5 kmh W 2.9 mph4.7 kmh 29.63 in1003.4 mb 0.00 in0.0 mm 0.00 in0.0 mm 0.44 in11.2 mm
12:10 PM 38.0°F3.3°C 41.6°F5.3°C 91% 3.2 mph NW5.1 kmh NW 3.2 mph5.1 kmh 29.63 in1003.4 mb 0.00 in0.0 mm 0.00 in0.0 mm 0.44 in11.2 mm
12:13 PM 38.0°F3.3°C 41.6°F5.3°C 91% 0.8 mph W1.3 kmh W 0.8 mph1.3 kmh 29.63 in1003.4 mb 0.00 in0.0 mm 0.00 in0.0 mm 0.44 in11.2 mm
12:16 PM 38.0°F3.3°C 41.8°F5.4°C 91% 1.6 mph W2.6 kmh W 1.6 mph2.6 kmh 29.63 in1003.4 mb 0.00 in0.0 mm 0.00 in0.0 mm 0.44 in11.2 mm
12:19 PM 38.1°F3.4°C 41.5°F5.3°C 91% 4.9 mph W7.9 kmh W 4.9 mph7.9 kmh 29.63 in1003.4 mb 0.00 in0.0 mm 0.00 in0.0 mm 0.44 in11.2 mm
12:22 PM 38.1°F3.4°C 41.7°F5.4°C 90% 1.6 mph W2.6 kmh W 1.6 mph2.6 kmh 29.63 in1003.4 mb 0.00 in0.0 mm 0.00 in0.0 mm 0.44 in11.2 mm
12:25 PM 38.1°F3.4°C 41.4°F5.2°C 90% 2.4 mph NNW3.9 kmh NNW 2.5 mph4.0 kmh 29.63 in1003.4 mb 0.00 in0.0 mm 0.00 in0.0 mm 0.44 in11.2 mm
12:28 PM 38.1°F3.4°C 41.7°F5.4°C 91% 2.8 mph W4.5 kmh W 2.8 mph4.5 kmh 29.63 in1003.4 mb 0.00 in0.0 mm 0.00 in0.0 mm 0.44 in11.2 mm
12:31 PM 38.1°F3.4°C 41.7°F5.4°C 90% 2.4 mph W3.9 kmh W 2.4 mph3.9 kmh 29.63 in1003.4 mb 0.00 in0.0 mm 0.00 in0.0 mm 0.44 in11.2 mm
12:34 PM 38.1°F3.4°C 41.9°F5.5°C 90% 0.4 mph WNW0.6 kmh WNW 0.4 mph0.6 kmh 29.63 in1003.4 mb 0.00 in0.0 mm 0.00 in0.0 mm 0.44 in11.2 mm
12:37 PM 38.1°F3.4°C 41.6°F5.3°C 90% Calm Calm -- 29.63 in1003.4 mb 0.00 in0.0 mm 0.00 in0.0 mm 0.44 in11.2 mm
12:40 PM 38.2°F3.4°C 41.7°F5.4°C 91% 0.8 mph WNW1.3 kmh WNW 0.8 mph1.3 kmh 29.63 in1003.4 mb 0.00 in0.0 mm 0.00 in0.0 mm 0.44 in11.2 mm
12:43 PM 38.3°F3.5°C 41.6°F5.3°C 90% 0.8 mph NW1.3 kmh NW 0.8 mph1.3 kmh 29.62 in1003.0 mb 0.00 in0.0 mm 0.00 in0.0 mm 0.44 in11.2 mm
12:46 PM 38.3°F3.5°C 41.8°F5.4°C 90% Calm Calm -- 29.62 in1003.0 mb 0.00 in0.0 mm 0.00 in0.0 mm 0.44 in11.2 mm
12:49 PM 38.2°F3.4°C 41.7°F5.4°C 89% Calm Calm -- 29.62 in1003.0 mb 0.00 in0.0 mm 0.00 in0.0 mm 0.44 in11.2 mm
12:52 PM 38.3°F3.5°C 41.7°F5.4°C 90% 0.4 mph W0.6 kmh W 0.4 mph0.6 kmh 29.62 in1003.0 mb 0.00 in0.0 mm 0.00 in0.0 mm 0.44 in11.2 mm
12:55 PM 38.3°F3.5°C 41.9°F5.5°C 91% 1.6 mph W2.6 kmh W 1.6 mph2.6 kmh 29.62 in1003.0 mb 0.00 in0.0 mm 0.00 in0.0 mm 0.44 in11.2 mm
12:58 PM 38.3°F3.5°C 41.9°F5.5°C 90% 2.0 mph WNW3.2 kmh WNW 2.0 mph3.2 kmh 29.62 in1003.0 mb 0.00 in0.0 mm 0.00 in0.0 mm 0.44 in11.2 mm
01:01 PM 38.3°F3.5°C 41.8°F5.4°C 91% Calm Calm -- 29.62 in1003.0 mb 0.00 in0.0 mm 0.00 in0.0 mm 0.44 in11.2 mm
01:04 PM 38.2°F3.4°C 42.0°F5.6°C 91% 0.8 mph NW1.3 kmh NW 0.8 mph1.3 kmh 29.62 in1003.0 mb 0.00 in0.0 mm 0.00 in0.0 mm 0.44 in11.2 mm
01:07 PM 38.4°F3.6°C 42.1°F5.6°C 90% 1.2 mph NNW1.9 kmh NNW 1.2 mph1.9 kmh 29.62 in1003.0 mb 0.00 in0.0 mm 0.00 in0.0 mm 0.44 in11.2 mm
01:10 PM 38.3°F3.5°C 42.1°F5.6°C 91% 3.2 mph SW5.1 kmh SW 3.2 mph5.1 kmh 29.62 in1003.0 mb 0.00 in0.0 mm 0.00 in0.0 mm 0.44 in11.2 mm
01:13 PM 38.3°F3.5°C 42.1°F5.6°C 91% 2.4 mph WSW3.9 kmh WSW 2.4 mph3.9 kmh 29.62 in1003.0 mb 0.00 in0.0 mm 0.00 in0.0 mm 0.44 in11.2 mm
01:16 PM 38.3°F3.5°C 41.9°F5.5°C 91% 1.6 mph W2.6 kmh W 1.6 mph2.6 kmh 29.62 in1003.0 mb 0.00 in0.0 mm 0.00 in0.0 mm 0.44 in11.2 mm
01:19 PM 38.3°F3.5°C 41.8°F5.4°C 91% 1.2 mph W1.9 kmh W 1.2 mph1.9 kmh 29.62 in1003.0 mb 0.00 in0.0 mm 0.00 in0.0 mm 0.44 in11.2 mm
01:22 PM 38.3°F3.5°C 42.0°F5.6°C 90% 1.6 mph NNW2.6 kmh NNW 1.6 mph2.6 kmh 29.62 in1003.0 mb 0.00 in0.0 mm 0.00 in0.0 mm 0.44 in11.2 mm
01:25 PM 38.3°F3.5°C 42.1°F5.6°C 91% 2.4 mph W3.9 kmh W 2.5 mph4.0 kmh 29.62 in1003.0 mb 0.00 in0.0 mm 0.00 in0.0 mm 0.44 in11.2 mm
01:28 PM 38.3°F3.5°C 42.1°F5.6°C 91% 2.8 mph WSW4.5 kmh WSW 2.9 mph4.7 kmh 29.62 in1003.0 mb 0.00 in0.0 mm 0.00 in0.0 mm 0.44 in11.2 mm
01:31 PM 38.3°F3.5°C 41.9°F5.5°C 90% 1.2 mph NNW1.9 kmh NNW 1.2 mph1.9 kmh 29.62 in1003.0 mb 0.00 in0.0 mm 0.00 in0.0 mm 0.44 in11.2 mm
01:34 PM 38.3°F3.5°C 42.1°F5.6°C 91% 1.6 mph W2.6 kmh W 1.6 mph2.6 kmh 29.62 in1003.0 mb 0.00 in0.0 mm 0.00 in0.0 mm 0.44 in11.2 mm
01:37 PM 38.3°F3.5°C 42.2°F5.7°C 91% 1.2 mph NNW1.9 kmh NNW 1.2 mph1.9 kmh 29.62 in1003.0 mb 0.00 in0.0 mm 0.00 in0.0 mm 0.44 in11.2 mm
01:40 PM 38.2°F3.4°C 42.0°F5.6°C 90% 2.0 mph W3.2 kmh W 2.0 mph3.2 kmh 29.62 in1003.0 mb 0.00 in0.0 mm 0.00 in0.0 mm 0.44 in11.2 mm
01:43 PM 38.3°F3.5°C 42.1°F5.6°C 91% 0.8 mph W1.3 kmh W 0.8 mph1.3 kmh 29.62 in1003.0 mb 0.00 in0.0 mm 0.00 in0.0 mm 0.44 in11.2 mm
01:46 PM 38.3°F3.5°C 42.2°F5.7°C 91% 1.6 mph NNW2.6 kmh NNW 1.6 mph2.6 kmh 29.62 in1003.0 mb 0.00 in0.0 mm 0.00 in0.0 mm 0.46 in11.7 mm
01:49 PM 38.4°F3.6°C 42.0°F5.6°C 90% 2.4 mph WSW3.9 kmh WSW 2.5 mph4.0 kmh 29.62 in1003.0 mb 0.00 in0.0 mm 0.00 in0.0 mm 0.46 in11.7 mm
01:52 PM 38.6°F3.7°C 42.2°F5.7°C 91% 2.8 mph NNW4.5 kmh NNW 2.9 mph4.7 kmh 29.62 in1003.0 mb 0.00 in0.0 mm 0.00 in0.0 mm 0.46 in11.7 mm
01:55 PM 38.5°F3.6°C 42.2°F5.7°C 91% 3.2 mph NW5.1 kmh NW 3.2 mph5.1 kmh 29.62 in1003.0 mb 0.00 in0.0 mm 0.00 in0.0 mm 0.46 in11.7 mm
01:58 PM 38.5°F3.6°C 42.2°F5.7°C 91% 1.6 mph NNW2.6 kmh NNW 1.6 mph2.6 kmh 29.62 in1003.0 mb 0.00 in0.0 mm 0.00 in0.0 mm 0.46 in11.7 mm
02:01 PM 38.4°F3.6°C 42.2°F5.7°C 90% 2.4 mph W3.9 kmh W 2.4 mph3.9 kmh 29.62 in1003.0 mb 0.00 in0.0 mm 0.00 in0.0 mm 0.46 in11.7 mm
02:04 PM 38.5°F3.6°C 41.8°F5.4°C 90% Calm Calm -- 29.62 in1003.0 mb 0.00 in0.0 mm 0.00 in0.0 mm 0.46 in11.7 mm
02:07 PM 38.5°F3.6°C 42.2°F5.7°C 90% 3.6 mph NW5.8 kmh NW 3.7 mph6.0 kmh 29.62 in1003.0 mb 0.00 in0.0 mm 0.00 in0.0 mm 0.46 in11.7 mm
02:10 PM 38.4°F3.6°C 42.2°F5.7°C 90% 2.0 mph WNW3.2 kmh WNW 2.0 mph3.2 kmh 29.62 in1003.0 mb 0.00 in0.0 mm 0.00 in0.0 mm 0.46 in11.7 mm
02:13 PM 38.3°F3.5°C 42.0°F5.6°C 90% 2.8 mph NNW4.5 kmh NNW 2.9 mph4.7 kmh 29.62 in1003.0 mb 0.00 in0.0 mm 0.00 in0.0 mm 0.46 in11.7 mm
02:16 PM 38.4°F3.6°C 42.0°F5.6°C 90% 3.2 mph WNW5.1 kmh WNW 3.3 mph5.3 kmh 29.62 in1003.0 mb 0.00 in0.0 mm 0.00 in0.0 mm 0.46 in11.7 mm
02:19 PM 38.3°F3.5°C 41.7°F5.4°C 89% 2.8 mph WNW4.5 kmh WNW 2.9 mph4.7 kmh 29.62 in1003.0 mb 0.00 in0.0 mm 0.00 in0.0 mm 0.46 in11.7 mm
02:22 PM 38.4°F3.6°C 42.5°F5.8°C 90% 2.8 mph W4.5 kmh W 2.9 mph4.7 kmh 29.62 in1003.0 mb 0.00 in0.0 mm 0.00 in0.0 mm 0.46 in11.7 mm
02:25 PM 38.4°F3.6°C 42.1°F5.6°C 90% 4.4 mph WNW7.1 kmh WNW 4.4 mph7.1 kmh 29.62 in1003.0 mb 0.00 in0.0 mm 0.00 in0.0 mm 0.46 in11.7 mm
02:28 PM 38.5°F3.6°C 42.3°F5.7°C 90% 2.0 mph NNW3.2 kmh NNW 2.0 mph3.2 kmh 29.62 in1003.0 mb 0.00 in0.0 mm 0.00 in0.0 mm 0.46 in11.7 mm
02:31 PM 38.4°F3.6°C 42.0°F5.6°C 91% 1.6 mph NNW2.6 kmh NNW 1.6 mph2.6 kmh 29.62 in1003.0 mb 0.00 in0.0 mm 0.00 in0.0 mm 0.46 in11.7 mm
02:34 PM 38.4°F3.6°C 42.3°F5.7°C 91% 1.2 mph NW1.9 kmh NW 1.2 mph1.9 kmh 29.62 in1003.0 mb 0.00 in0.0 mm 0.00 in0.0 mm 0.46 in11.7 mm
02:37 PM 38.4°F3.6°C 41.8°F5.4°C 89% 2.0 mph WSW3.2 kmh WSW 2.0 mph3.2 kmh 29.62 in1003.0 mb 0.00 in0.0 mm 0.00 in0.0 mm 0.46 in11.7 mm
02:40 PM 38.3°F3.5°C 42.1°F5.6°C 91% 0.8 mph NNW1.3 kmh NNW 0.8 mph1.3 kmh 29.62 in1003.0 mb 0.00 in0.0 mm 0.00 in0.0 mm 0.46 in11.7 mm
02:43 PM 38.4°F3.6°C 42.1°F5.6°C 90% 1.2 mph WNW1.9 kmh WNW 1.2 mph1.9 kmh 29.62 in1003.0 mb 0.00 in0.0 mm 0.00 in0.0 mm 0.46 in11.7 mm
02:46 PM 38.4°F3.6°C 41.8°F5.4°C 89% 0.4 mph WNW0.6 kmh WNW 0.4 mph0.6 kmh 29.62 in1003.0 mb 0.00 in0.0 mm 0.00 in0.0 mm 0.46 in11.7 mm
02:49 PM 38.3°F3.5°C 42.2°F5.7°C 91% 5.2 mph SW8.4 kmh SW 5.2 mph8.4 kmh 29.62 in1003.0 mb 0.00 in0.0 mm 0.00 in0.0 mm 0.46 in11.7 mm
02:52 PM 38.3°F3.5°C 42.1°F5.6°C 90% 2.4 mph W3.9 kmh W 2.4 mph3.9 kmh 29.62 in1003.0 mb 0.00 in0.0 mm 0.00 in0.0 mm 0.46 in11.7 mm
02:55 PM 38.3°F3.5°C 42.5°F5.8°C 91% 2.8 mph W4.5 kmh W 2.8 mph4.5 kmh 29.62 in1003.0 mb 0.00 in0.0 mm 0.00 in0.0 mm 0.46 in11.7 mm
02:58 PM 38.3°F3.5°C 42.3°F5.7°C 91% 2.8 mph WSW4.5 kmh WSW 2.9 mph4.7 kmh 29.62 in1003.0 mb 0.00 in0.0 mm 0.00 in0.0 mm 0.46 in11.7 mm
03:04 PM 38.4°F3.6°C 42.4°F5.8°C 91% 3.2 mph WNW5.1 kmh WNW 3.3 mph5.3 kmh 29.62 in1003.0 mb 0.00 in0.0 mm 0.00 in0.0 mm 0.46 in11.7 mm
03:07 PM 38.3°F3.5°C 42.2°F5.7°C 90% 2.0 mph W3.2 kmh W 2.0 mph3.2 kmh 29.62 in1003.0 mb 0.00 in0.0 mm 0.00 in0.0 mm 0.46 in11.7 mm
03:11 PM 38.3°F3.5°C 42.0°F5.6°C 90% 2.8 mph WSW4.5 kmh WSW 2.8 mph4.5 kmh 29.62 in1003.0 mb 0.00 in0.0 mm 0.00 in0.0 mm 0.46 in11.7 mm
03:14 PM 38.2°F3.4°C 42.1°F5.6°C 91% 1.2 mph W1.9 kmh W 1.2 mph1.9 kmh 29.62 in1003.0 mb 0.00 in0.0 mm 0.00 in0.0 mm 0.46 in11.7 mm
03:17 PM 38.2°F3.4°C 42.2°F5.7°C 90% 1.2 mph NW1.9 kmh NW 1.2 mph1.9 kmh 29.62 in1003.0 mb 0.00 in0.0 mm 0.00 in0.0 mm 0.46 in11.7 mm
03:20 PM 38.2°F3.4°C 42.2°F5.7°C 90% 0.8 mph W1.3 kmh W 0.8 mph1.3 kmh 29.62 in1003.0 mb 0.00 in0.0 mm 0.00 in0.0 mm 0.46 in11.7 mm
03:23 PM 38.2°F3.4°C 42.0°F5.6°C 90% 3.2 mph WNW5.1 kmh WNW 3.2 mph5.1 kmh 29.62 in1003.0 mb 0.00 in0.0 mm 0.00 in0.0 mm 0.46 in11.7 mm
03:26 PM 38.1°F3.4°C 42.2°F5.7°C 90% Calm Calm -- 29.62 in1003.0 mb 0.00 in0.0 mm 0.00 in0.0 mm 0.46 in11.7 mm
03:29 PM 38.2°F3.4°C 42.2°F5.7°C 90% Calm Calm -- 29.62 in1003.0 mb 0.00 in0.0 mm 0.00 in0.0 mm 0.46 in11.7 mm
03:32 PM 38.2°F3.4°C 42.1°F5.6°C 90% 0.8 mph NNW1.3 kmh NNW 0.8 mph1.3 kmh 29.62 in1003.0 mb 0.00 in0.0 mm 0.00 in0.0 mm 0.46 in11.7 mm
03:35 PM 38.2°F3.4°C 42.3°F5.7°C 90% 6.5 mph WSW10.5 kmh WSW 6.5 mph10.5 kmh 29.62 in1003.0 mb 0.00 in0.0 mm 0.00 in0.0 mm 0.46 in11.7 mm
03:38 PM 38.0°F3.3°C 41.9°F5.5°C 90% 3.2 mph W5.1 kmh W 3.2 mph5.1 kmh 29.62 in1003.0 mb 0.00 in0.0 mm 0.00 in0.0 mm 0.46 in11.7 mm
03:41 PM 38.1°F3.4°C 41.8°F5.4°C 90% 1.2 mph WNW1.9 kmh WNW 1.2 mph1.9 kmh 29.62 in1003.0 mb 0.00 in0.0 mm 0.00 in0.0 mm 0.46 in11.7 mm
03:44 PM 38.0°F3.3°C 41.9°F5.5°C 90% 4.8 mph NNW7.7 kmh NNW 4.8 mph7.7 kmh 29.63 in1003.4 mb 0.00 in0.0 mm 0.00 in0.0 mm 0.46 in11.7 mm
03:47 PM 37.7°F3.2°C 41.8°F5.4°C 89% Calm Calm -- 29.62 in1003.0 mb 0.00 in0.0 mm 0.00 in0.0 mm 0.46 in11.7 mm
03:50 PM 37.4°F3.0°C 41.9°F5.5°C 90% 2.8 mph NW4.5 kmh NW 2.9 mph4.7 kmh 29.62 in1003.0 mb 0.00 in0.0 mm 0.00 in0.0 mm 0.46 in11.7 mm
03:53 PM 37.3°F2.9°C 41.8°F5.4°C 89% Calm Calm -- 29.63 in1003.4 mb 0.00 in0.0 mm 0.00 in0.0 mm 0.46 in11.7 mm
03:56 PM 37.4°F3.0°C 41.6°F5.3°C 89% Calm Calm -- 29.62 in1003.0 mb 0.00 in0.0 mm 0.00 in0.0 mm 0.46 in11.7 mm
03:59 PM 37.4°F3.0°C 41.4°F5.2°C 88% Calm Calm -- 29.63 in1003.4 mb 0.00 in0.0 mm 0.00 in0.0 mm 0.46 in11.7 mm
04:05 PM 37.4°F3.0°C 41.6°F5.3°C 89% 1.6 mph NNW2.6 kmh NNW 1.6 mph2.6 kmh 29.63 in1003.4 mb 0.00 in0.0 mm 0.00 in0.0 mm 0.46 in11.7 mm
04:08 PM 37.3°F2.9°C 41.5°F5.3°C 89% 3.6 mph NW5.8 kmh NW 3.7 mph6.0 kmh 29.63 in1003.4 mb 0.00 in0.0 mm 0.00 in0.0 mm 0.46 in11.7 mm
04:11 PM 37.3°F2.9°C 41.2°F5.1°C 88% 0.8 mph NW1.3 kmh NW 0.8 mph1.3 kmh 29.63 in1003.4 mb 0.00 in0.0 mm 0.00 in0.0 mm 0.46 in11.7 mm
04:14 PM 37.3°F2.9°C 41.5°F5.3°C 89% 1.6 mph NNW2.6 kmh NNW 1.6 mph2.6 kmh 29.63 in1003.4 mb 0.00 in0.0 mm 0.00 in0.0 mm 0.46 in11.7 mm
04:17 PM 37.3°F2.9°C 41.6°F5.3°C 89% 1.2 mph NNW1.9 kmh NNW 1.2 mph1.9 kmh 29.63 in1003.4 mb 0.00 in0.0 mm 0.00 in0.0 mm 0.46 in11.7 mm
04:20 PM 37.3°F2.9°C 41.2°F5.1°C 88% 0.8 mph NNE1.3 kmh NNE 0.8 mph1.3 kmh 29.63 in1003.4 mb 0.00 in0.0 mm 0.00 in0.0 mm 0.46 in11.7 mm
04:23 PM 37.0°F2.8°C 41.3°F5.2°C 89% Calm Calm -- 29.63 in1003.4 mb 0.00 in0.0 mm 0.00 in0.0 mm 0.46 in11.7 mm
04:26 PM 37.0°F2.8°C 41.3°F5.2°C 89% Calm Calm -- 29.63 in1003.4 mb 0.00 in0.0 mm 0.00 in0.0 mm 0.46 in11.7 mm
04:29 PM 36.8°F2.7°C 41.3°F5.2°C 89% Calm Calm -- 29.63 in1003.4 mb 0.00 in0.0 mm 0.00 in0.0 mm 0.46 in11.7 mm
04:32 PM 36.7°F2.6°C 41.3°F5.2°C 89% Calm Calm -- 29.63 in1003.4 mb 0.00 in0.0 mm 0.00 in0.0 mm 0.46 in11.7 mm
04:35 PM 36.7°F2.6°C 41.2°F5.1°C 89% Calm Calm -- 29.63 in1003.4 mb 0.00 in0.0 mm 0.00 in0.0 mm 0.46 in11.7 mm
04:38 PM 36.5°F2.5°C 40.8°F4.9°C 88% Calm Calm -- 29.63 in1003.4 mb 0.00 in0.0 mm 0.00 in0.0 mm 0.46 in11.7 mm
04:41 PM 36.4°F2.4°C 40.8°F4.9°C 88% Calm Calm -- 29.63 in1003.4 mb 0.00 in0.0 mm 0.00 in0.0 mm 0.46 in11.7 mm
04:44 PM 36.5°F2.5°C 41.2°F5.1°C 88% Calm Calm -- 29.63 in1003.4 mb 0.00 in0.0 mm 0.00 in0.0 mm 0.46 in11.7 mm
04:47 PM 36.5°F2.5°C 41.0°F5.0°C 88% Calm Calm -- 29.63 in1003.4 mb 0.00 in0.0 mm 0.00 in0.0 mm 0.46 in11.7 mm
04:50 PM 36.4°F2.4°C 40.9°F4.9°C 88% Calm Calm -- 29.63 in1003.4 mb 0.00 in0.0 mm 0.00 in0.0 mm 0.46 in11.7 mm
04:51 PM 36.5°F2.5°C 40.8°F4.9°C 88% Calm Calm -- 29.63 in1003.4 mb 0.00 in0.0 mm 0.00 in0.0 mm 0.46 in11.7 mm
04:54 PM 36.4°F2.4°C 41.0°F5.0°C 89% Calm Calm -- 29.63 in1003.4 mb 0.00 in0.0 mm 0.00 in0.0 mm 0.46 in11.7 mm
04:57 PM 36.5°F2.5°C 41.1°F5.1°C 89% Calm Calm -- 29.63 in1003.4 mb 0.00 in0.0 mm 0.00 in0.0 mm 0.46 in11.7 mm
05:00 PM 36.4°F2.4°C 41.0°F5.0°C 88% Calm Calm -- 29.63 in1003.4 mb 0.00 in0.0 mm 0.00 in0.0 mm 0.46 in11.7 mm
05:03 PM 36.4°F2.4°C 41.0°F5.0°C 89% Calm Calm -- 29.63 in1003.4 mb 0.00 in0.0 mm 0.00 in0.0 mm 0.46 in11.7 mm
05:06 PM 36.4°F2.4°C 41.1°F5.1°C 89% Calm Calm -- 29.63 in1003.4 mb 0.00 in0.0 mm 0.00 in0.0 mm 0.46 in11.7 mm
05:09 PM 36.5°F2.5°C 40.9°F4.9°C 88% Calm Calm -- 29.64 in1003.7 mb 0.00 in0.0 mm 0.00 in0.0 mm 0.46 in11.7 mm
05:12 PM 36.6°F2.6°C 41.1°F5.1°C 89% Calm Calm -- 29.63 in1003.4 mb 0.00 in0.0 mm 0.00 in0.0 mm 0.46 in11.7 mm
05:18 PM 36.7°F2.6°C 41.1°F5.1°C 89% Calm Calm -- 29.64 in1003.7 mb 0.00 in0.0 mm 0.00 in0.0 mm 0.46 in11.7 mm
05:21 PM 36.7°F2.6°C 40.9°F4.9°C 89% Calm Calm -- 29.64 in1003.7 mb 0.00 in0.0 mm 0.00 in0.0 mm 0.46 in11.7 mm
05:24 PM 36.7°F2.6°C 41.1°F5.1°C 89% Calm Calm -- 29.64 in1003.7 mb 0.00 in0.0 mm 0.00 in0.0 mm 0.46 in11.7 mm
05:27 PM 36.6°F2.6°C 41.0°F5.0°C 89% 3.6 mph NNW5.8 kmh NNW 3.6 mph5.8 kmh 29.63 in1003.4 mb 0.00 in0.0 mm 0.00 in0.0 mm 0.46 in11.7 mm
05:30 PM 36.5°F2.5°C 40.8°F4.9°C 89% 1.2 mph NW1.9 kmh NW 1.2 mph1.9 kmh 29.63 in1003.4 mb 0.00 in0.0 mm 0.00 in0.0 mm 0.46 in11.7 mm
05:33 PM 36.4°F2.4°C 40.8°F4.9°C 89% 1.2 mph W1.9 kmh W 1.2 mph1.9 kmh 29.63 in1003.4 mb 0.00 in0.0 mm 0.00 in0.0 mm 0.46 in11.7 mm
05:36 PM 36.2°F2.3°C 40.5°F4.7°C 88% Calm Calm -- 29.63 in1003.4 mb 0.00 in0.0 mm 0.00 in0.0 mm 0.46 in11.7 mm
05:42 PM 36.2°F2.3°C 40.7°F4.8°C 89% Calm Calm -- 29.63 in1003.4 mb 0.00 in0.0 mm 0.00 in0.0 mm 0.46 in11.7 mm
05:45 PM 36.2°F2.3°C 40.7°F4.8°C 89% Calm Calm -- 29.63 in1003.4 mb 0.00 in0.0 mm 0.00 in0.0 mm 0.46 in11.7 mm
05:48 PM 36.2°F2.3°C 40.7°F4.8°C 89% Calm Calm -- 29.63 in1003.4 mb 0.00 in0.0 mm 0.00 in0.0 mm 0.46 in11.7 mm
05:51 PM 36.1°F2.3°C 40.6°F4.8°C 89% Calm Calm -- 29.63 in1003.4 mb 0.00 in0.0 mm 0.00 in0.0 mm 0.46 in11.7 mm
05:54 PM 36.1°F2.3°C 40.9°F4.9°C 89% Calm Calm -- 29.63 in1003.4 mb 0.00 in0.0 mm 0.00 in0.0 mm 0.46 in11.7 mm
05:57 PM 35.9°F2.2°C 40.5°F4.7°C 89% Calm Calm -- 29.63 in1003.4 mb 0.00 in0.0 mm 0.00 in0.0 mm 0.46 in11.7 mm
06:00 PM 35.9°F2.2°C 40.7°F4.8°C 89% Calm Calm -- 29.63 in1003.4 mb 0.00 in0.0 mm 0.00 in0.0 mm 0.46 in11.7 mm
06:03 PM 36.2°F2.3°C 40.4°F4.7°C 89% Calm Calm -- 29.63 in1003.4 mb 0.00 in0.0 mm 0.00 in0.0 mm 0.46 in11.7 mm
06:06 PM 36.1°F2.3°C 40.5°F4.7°C 89% Calm Calm -- 29.63 in1003.4 mb 0.00 in0.0 mm 0.00 in0.0 mm 0.46 in11.7 mm
06:09 PM 36.1°F2.3°C 40.7°F4.8°C 89% Calm Calm -- 29.63 in1003.4 mb 0.00 in0.0 mm 0.00 in0.0 mm 0.46 in11.7 mm
06:12 PM 36.1°F2.3°C 40.5°F4.7°C 89% Calm Calm -- 29.63 in1003.4 mb 0.00 in0.0 mm 0.00 in0.0 mm 0.46 in11.7 mm
06:15 PM 35.9°F2.2°C 40.5°F4.7°C 88% Calm Calm -- 29.62 in1003.0 mb 0.00 in0.0 mm 0.00 in0.0 mm 0.46 in11.7 mm
06:18 PM 36.1°F2.3°C 40.8°F4.9°C 89% Calm Calm -- 29.63 in1003.4 mb 0.00 in0.0 mm 0.00 in0.0 mm 0.46 in11.7 mm
06:21 PM 36.1°F2.3°C 40.6°F4.8°C 89% Calm Calm -- 29.62 in1003.0 mb 0.00 in0.0 mm 0.00 in0.0 mm 0.46 in11.7 mm
06:24 PM 36.2°F2.3°C 40.5°F4.7°C 89% 0.4 mph WSW0.6 kmh WSW 0.4 mph0.6 kmh 29.63 in1003.4 mb 0.00 in0.0 mm 0.00 in0.0 mm 0.46 in11.7 mm
06:27 PM 36.2°F2.3°C 40.8°F4.9°C 89% Calm Calm -- 29.63 in1003.4 mb 0.00 in0.0 mm 0.00 in0.0 mm 0.46 in11.7 mm
06:30 PM 36.2°F2.3°C 40.6°F4.8°C 89% Calm Calm -- 29.62 in1003.0 mb 0.00 in0.0 mm 0.00 in0.0 mm 0.46 in11.7 mm
06:33 PM 36.1°F2.3°C 40.7°F4.8°C 89% Calm Calm -- 29.62 in1003.0 mb 0.00 in0.0 mm 0.00 in0.0 mm 0.46 in11.7 mm
06:36 PM 35.9°F2.2°C 40.8°F4.9°C 89% Calm Calm -- 29.62 in1003.0 mb 0.00 in0.0 mm 0.00 in0.0 mm 0.46 in11.7 mm
06:39 PM 35.8°F2.1°C 40.6°F4.8°C 89% Calm Calm -- 29.62 in1003.0 mb 0.00 in0.0 mm 0.00 in0.0 mm 0.46 in11.7 mm
06:42 PM 35.8°F2.1°C 40.5°F4.7°C 89% Calm Calm -- 29.62 in1003.0 mb 0.00 in0.0 mm 0.00 in0.0 mm 0.46 in11.7 mm
06:45 PM 35.9°F2.2°C 40.4°F4.7°C 89% Calm Calm -- 29.62 in1003.0 mb 0.00 in0.0 mm 0.00 in0.0 mm 0.46 in11.7 mm
06:48 PM 35.9°F2.2°C 40.6°F4.8°C 89% Calm Calm -- 29.62 in1003.0 mb 0.00 in0.0 mm 0.00 in0.0 mm 0.46 in11.7 mm
06:51 PM 35.9°F2.2°C 40.5°F4.7°C 89% Calm Calm -- 29.62 in1003.0 mb 0.00 in0.0 mm 0.00 in0.0 mm 0.46 in11.7 mm
06:54 PM 35.9°F2.2°C 40.7°F4.8°C 89% Calm Calm -- 29.62 in1003.0 mb 0.00 in0.0 mm 0.00 in0.0 mm 0.46 in11.7 mm
06:57 PM 35.9°F2.2°C 40.3°F4.6°C 89% Calm Calm -- 29.62 in1003.0 mb 0.00 in0.0 mm 0.00 in0.0 mm 0.46 in11.7 mm
07:00 PM 35.9°F2.2°C 40.3°F4.6°C 89% Calm Calm -- 29.62 in1003.0 mb 0.00 in0.0 mm 0.00 in0.0 mm 0.46 in11.7 mm
07:03 PM 35.9°F2.2°C 40.1°F4.5°C 89% Calm Calm -- 29.62 in1003.0 mb 0.00 in0.0 mm 0.00 in0.0 mm 0.46 in11.7 mm
07:06 PM 35.8°F2.1°C 40.4°F4.7°C 89% Calm Calm -- 29.62 in1003.0 mb 0.00 in0.0 mm 0.00 in0.0 mm 0.46 in11.7 mm
07:09 PM 35.8°F2.1°C 40.3°F4.6°C 89% Calm Calm -- 29.62 in1003.0 mb 0.00 in0.0 mm 0.00 in0.0 mm 0.46 in11.7 mm
07:12 PM 35.7°F2.1°C 40.1°F4.5°C 89% Calm Calm -- 29.62 in1003.0 mb 0.00 in0.0 mm 0.00 in0.0 mm 0.46 in11.7 mm
07:15 PM 35.6°F2.0°C 40.3°F4.6°C 89% Calm Calm -- 29.62 in1003.0 mb 0.00 in0.0 mm 0.00 in0.0 mm 0.46 in11.7 mm
07:18 PM 35.4°F1.9°C 40.1°F4.5°C 89% Calm Calm -- 29.62 in1003.0 mb 0.00 in0.0 mm 0.00 in0.0 mm 0.46 in11.7 mm
07:21 PM 35.0°F1.7°C 40.0°F4.4°C 89% Calm Calm -- 29.62 in1003.0 mb 0.00 in0.0 mm 0.00 in0.0 mm 0.46 in11.7 mm
07:24 PM 34.8°F1.6°C 40.0°F4.4°C 89% Calm Calm -- 29.62 in1003.0 mb 0.00 in0.0 mm 0.00 in0.0 mm 0.46 in11.7 mm
07:27 PM 34.4°F1.3°C 40.0°F4.4°C 89% Calm Calm -- 29.62 in1003.0 mb 0.00 in0.0 mm 0.00 in0.0 mm 0.46 in11.7 mm
07:30 PM 34.0°F1.1°C 39.8°F4.3°C 88% Calm Calm -- 29.62 in1003.0 mb 0.00 in0.0 mm 0.00 in0.0 mm 0.46 in11.7 mm
07:33 PM 33.9°F1.1°C 39.6°F4.2°C 88% Calm Calm -- 29.62 in1003.0 mb 0.00 in0.0 mm 0.00 in0.0 mm 0.46 in11.7 mm
07:36 PM 33.9°F1.1°C 39.4°F4.1°C 88% Calm Calm -- 29.62 in1003.0 mb 0.00 in0.0 mm 0.00 in0.0 mm 0.46 in11.7 mm
07:39 PM 33.8°F1.0°C 39.4°F4.1°C 88% Calm Calm -- 29.62 in1003.0 mb 0.00 in0.0 mm 0.00 in0.0 mm 0.46 in11.7 mm
07:42 PM 34.0°F1.1°C 39.5°F4.2°C 89% Calm Calm -- 29.62 in1003.0 mb 0.00 in0.0 mm 0.00 in0.0 mm 0.46 in11.7 mm
07:45 PM 34.4°F1.3°C 39.4°F4.1°C 89% Calm Calm -- 29.62 in1003.0 mb 0.00 in0.0 mm 0.00 in0.0 mm 0.46 in11.7 mm
07:48 PM 34.5°F1.4°C 39.3°F4.1°C 88% Calm Calm -- 29.62 in1003.0 mb 0.00 in0.0 mm 0.00 in0.0 mm 0.46 in11.7 mm
07:51 PM 34.6°F1.4°C 39.3°F4.1°C 89% Calm Calm -- 29.62 in1003.0 mb 0.00 in0.0 mm 0.00 in0.0 mm 0.46 in11.7 mm
07:54 PM 34.6°F1.4°C 39.1°F3.9°C 88% Calm Calm -- 29.62 in1003.0 mb 0.00 in0.0 mm 0.00 in0.0 mm 0.46 in11.7 mm
07:57 PM 34.7°F1.5°C 39.4°F4.1°C 89% Calm Calm -- 29.62 in1003.0 mb 0.00 in0.0 mm 0.00 in0.0 mm 0.46 in11.7 mm
08:00 PM 34.7°F1.5°C 39.6°F4.2°C 89% Calm Calm -- 29.62 in1003.0 mb 0.00 in0.0 mm 0.00 in0.0 mm 0.46 in11.7 mm
08:03 PM 34.7°F1.5°C 39.5°F4.2°C 89% Calm Calm -- 29.62 in1003.0 mb 0.00 in0.0 mm 0.00 in0.0 mm 0.46 in11.7 mm
08:06 PM 34.5°F1.4°C 39.3°F4.1°C 89% Calm Calm -- 29.62 in1003.0 mb 0.00 in0.0 mm 0.00 in0.0 mm 0.46 in11.7 mm
08:09 PM 34.5°F1.4°C 39.5°F4.2°C 89% Calm Calm -- 29.62 in1003.0 mb 0.00 in0.0 mm 0.00 in0.0 mm 0.46 in11.7 mm
08:12 PM 34.4°F1.3°C 39.4°F4.1°C 89% 1.6 mph NNW2.6 kmh NNW 1.6 mph2.6 kmh 29.63 in1003.4 mb 0.00 in0.0 mm 0.00 in0.0 mm 0.46 in11.7 mm
08:15 PM 34.1°F1.2°C 39.3°F4.1°C 89% Calm Calm -- 29.62 in1003.0 mb 0.00 in0.0 mm 0.00 in0.0 mm 0.46 in11.7 mm
08:18 PM 34.4°F1.3°C 38.9°F3.8°C 88% 3.2 mph WSW5.1 kmh WSW 3.3 mph5.3 kmh 29.62 in1003.0 mb 0.00 in0.0 mm 0.00 in0.0 mm 0.46 in11.7 mm
08:21 PM 34.0°F1.1°C 39.2°F4.0°C 89% 1.6 mph W2.6 kmh W 1.6 mph2.6 kmh 29.62 in1003.0 mb 0.00 in0.0 mm 0.00 in0.0 mm 0.46 in11.7 mm
08:24 PM 34.1°F1.2°C 39.3°F4.1°C 89% 0.4 mph W0.6 kmh W 0.4 mph0.6 kmh 29.62 in1003.0 mb 0.00 in0.0 mm 0.00 in0.0 mm 0.46 in11.7 mm
08:27 PM 34.3°F1.3°C 39.0°F3.9°C 89% Calm Calm -- 29.62 in1003.0 mb 0.00 in0.0 mm 0.00 in0.0 mm 0.46 in11.7 mm
08:30 PM 34.3°F1.3°C 39.2°F4.0°C 89% Calm Calm -- 29.62 in1003.0 mb 0.00 in0.0 mm 0.00 in0.0 mm 0.46 in11.7 mm
08:33 PM 34.5°F1.4°C 39.3°F4.1°C 89% Calm Calm -- 29.62 in1003.0 mb 0.00 in0.0 mm 0.00 in0.0 mm 0.46 in11.7 mm
08:36 PM 34.5°F1.4°C 39.1°F3.9°C 89% Calm Calm -- 29.62 in1003.0 mb 0.00 in0.0 mm 0.00 in0.0 mm 0.46 in11.7 mm
08:39 PM 34.5°F1.4°C 39.0°F3.9°C 89% Calm Calm -- 29.62 in1003.0 mb 0.00 in0.0 mm 0.00 in0.0 mm 0.46 in11.7 mm
08:42 PM 34.4°F1.3°C 39.4°F4.1°C 89% Calm Calm -- 29.62 in1003.0 mb 0.00 in0.0 mm 0.00 in0.0 mm 0.46 in11.7 mm
08:45 PM 34.5°F1.4°C 38.6°F3.7°C 88% Calm Calm -- 29.62 in1003.0 mb 0.00 in0.0 mm 0.00 in0.0 mm 0.46 in11.7 mm
08:48 PM 34.5°F1.4°C 39.0°F3.9°C 89% Calm Calm -- 29.62 in1003.0 mb 0.00 in0.0 mm 0.00 in0.0 mm 0.46 in11.7 mm
08:51 PM 34.6°F1.4°C 39.1°F3.9°C 89% Calm Calm -- 29.62 in1003.0 mb 0.00 in0.0 mm 0.00 in0.0 mm 0.46 in11.7 mm
08:54 PM 34.7°F1.5°C 39.0°F3.9°C 89% Calm Calm -- 29.62 in1003.0 mb 0.00 in0.0 mm 0.00 in0.0 mm 0.46 in11.7 mm
08:57 PM 34.6°F1.4°C 39.2°F4.0°C 89% Calm Calm -- 29.62 in1003.0 mb 0.00 in0.0 mm 0.00 in0.0 mm 0.46 in11.7 mm
09:00 PM 34.6°F1.4°C 39.2°F4.0°C 89% Calm Calm -- 29.62 in1003.0 mb 0.00 in0.0 mm 0.00 in0.0 mm 0.46 in11.7 mm
09:03 PM 34.8°F1.6°C 39.0°F3.9°C 89% Calm Calm -- 29.62 in1003.0 mb 0.00 in0.0 mm 0.00 in0.0 mm 0.46 in11.7 mm
09:06 PM 34.7°F1.5°C 39.4°F4.1°C 89% Calm Calm -- 29.62 in1003.0 mb 0.00 in0.0 mm 0.00 in0.0 mm 0.46 in11.7 mm
09:09 PM 34.7°F1.5°C 39.3°F4.1°C 90% 0.4 mph NW0.6 kmh NW 0.4 mph0.6 kmh 29.62 in1003.0 mb 0.00 in0.0 mm 0.00 in0.0 mm 0.46 in11.7 mm
09:12 PM 34.7°F1.5°C 39.3°F4.1°C 89% Calm Calm -- 29.62 in1003.0 mb 0.00 in0.0 mm 0.00 in0.0 mm 0.46 in11.7 mm
09:15 PM 34.7°F1.5°C 39.1°F3.9°C 90% Calm Calm -- 29.62 in1003.0 mb 0.00 in0.0 mm 0.00 in0.0 mm 0.46 in11.7 mm
09:18 PM 34.7°F1.5°C 39.3°F4.1°C 90% Calm Calm -- 29.62 in1003.0 mb 0.00 in0.0 mm 0.00 in0.0 mm 0.46 in11.7 mm
09:21 PM 34.6°F1.4°C 38.9°F3.8°C 89% Calm Calm -- 29.62 in1003.0 mb 0.00 in0.0 mm 0.00 in0.0 mm 0.46 in11.7 mm
09:24 PM 34.6°F1.4°C 39.4°F4.1°C 90% Calm Calm -- 29.62 in1003.0 mb 0.00 in0.0 mm 0.00 in0.0 mm 0.46 in11.7 mm
09:27 PM 34.6°F1.4°C 39.2°F4.0°C 90% Calm Calm -- 29.61 in1002.7 mb 0.00 in0.0 mm 0.00 in0.0 mm 0.46 in11.7 mm
09:30 PM 34.6°F1.4°C 39.2°F4.0°C 90% Calm Calm -- 29.61 in1002.7 mb 0.00 in0.0 mm 0.00 in0.0 mm 0.46 in11.7 mm
09:33 PM 34.5°F1.4°C 38.8°F3.8°C 88% Calm Calm -- 29.61 in1002.7 mb 0.00 in0.0 mm 0.00 in0.0 mm 0.46 in11.7 mm
09:36 PM 34.6°F1.4°C 39.2°F4.0°C 90% Calm Calm -- 29.61 in1002.7 mb 0.00 in0.0 mm 0.00 in0.0 mm 0.46 in11.7 mm
09:39 PM 34.4°F1.3°C 39.1°F3.9°C 90% Calm Calm -- 29.61 in1002.7 mb 0.00 in0.0 mm 0.00 in0.0 mm 0.46 in11.7 mm
09:42 PM 34.1°F1.2°C 39.0°F3.9°C 90% Calm Calm -- 29.61 in1002.7 mb 0.00 in0.0 mm 0.00 in0.0 mm 0.46 in11.7 mm
09:45 PM 34.0°F1.1°C 39.0°F3.9°C 89% Calm Calm -- 29.61 in1002.7 mb 0.00 in0.0 mm 0.00 in0.0 mm 0.46 in11.7 mm
09:48 PM 34.1°F1.2°C 38.9°F3.8°C 89% Calm Calm -- 29.61 in1002.7 mb 0.00 in0.0 mm 0.00 in0.0 mm 0.46 in11.7 mm
09:51 PM 34.1°F1.2°C 39.2°F4.0°C 90% Calm Calm -- 29.61 in1002.7 mb 0.00 in0.0 mm 0.00 in0.0 mm 0.46 in11.7 mm
09:54 PM 34.0°F1.1°C 38.9°F3.8°C 89% Calm Calm -- 29.61 in1002.7 mb 0.00 in0.0 mm 0.00 in0.0 mm 0.46 in11.7 mm
09:57 PM 34.1°F1.2°C 38.7°F3.7°C 89% Calm Calm -- 29.61 in1002.7 mb 0.00 in0.0 mm 0.00 in0.0 mm 0.46 in11.7 mm
10:00 PM 34.1°F1.2°C 38.6°F3.7°C 89% Calm Calm -- 29.61 in1002.7 mb 0.00 in0.0 mm 0.00 in0.0 mm 0.46 in11.7 mm
10:03 PM 34.0°F1.1°C 38.8°F3.8°C 90% Calm Calm -- 29.62 in1003.0 mb 0.00 in0.0 mm 0.00 in0.0 mm 0.46 in11.7 mm
10:06 PM 34.1°F1.2°C 39.0°F3.9°C 89% Calm Calm -- 29.62 in1003.0 mb 0.00 in0.0 mm 0.00 in0.0 mm 0.46 in11.7 mm
10:09 PM 34.1°F1.2°C 38.7°F3.7°C 90% Calm Calm -- 29.61 in1002.7 mb 0.00 in0.0 mm 0.00 in0.0 mm 0.46 in11.7 mm
10:15 PM 34.3°F1.3°C 38.7°F3.7°C 89% Calm Calm -- 29.61 in1002.7 mb 0.00 in0.0 mm 0.00 in0.0 mm 0.46 in11.7 mm
10:18 PM 34.6°F1.4°C 38.9°F3.8°C 90% 1.6 mph SSW2.6 kmh SSW 1.6 mph2.6 kmh 29.61 in1002.7 mb 0.00 in0.0 mm 0.00 in0.0 mm 0.46 in11.7 mm
10:21 PM 34.6°F1.4°C 39.1°F3.9°C 90% 1.6 mph SW2.6 kmh SW 1.6 mph2.6 kmh 29.61 in1002.7 mb 0.00 in0.0 mm 0.00 in0.0 mm 0.46 in11.7 mm
10:24 PM 34.6°F1.4°C 38.9°F3.8°C 90% 0.4 mph NNW0.6 kmh NNW 0.4 mph0.6 kmh 29.60 in1002.4 mb 0.00 in0.0 mm 0.00 in0.0 mm 0.46 in11.7 mm
10:27 PM 34.5°F1.4°C 38.9°F3.8°C 90% Calm Calm -- 29.61 in1002.7 mb 0.00 in0.0 mm 0.00 in0.0 mm 0.46 in11.7 mm
10:30 PM 34.5°F1.4°C 39.1°F3.9°C 90% Calm Calm -- 29.60 in1002.4 mb 0.00 in0.0 mm 0.00 in0.0 mm 0.46 in11.7 mm
10:33 PM 34.5°F1.4°C 39.0°F3.9°C 90% Calm Calm -- 29.60 in1002.4 mb 0.00 in0.0 mm 0.00 in0.0 mm 0.46 in11.7 mm
10:36 PM 34.5°F1.4°C 39.0°F3.9°C 90% Calm Calm -- 29.60 in1002.4 mb 0.00 in0.0 mm 0.00 in0.0 mm 0.46 in11.7 mm
10:39 PM 34.6°F1.4°C 39.1°F3.9°C 90% Calm Calm -- 29.60 in1002.4 mb 0.00 in0.0 mm 0.00 in0.0 mm 0.46 in11.7 mm
10:42 PM 34.5°F1.4°C 39.0°F3.9°C 90% Calm Calm -- 29.60 in1002.4 mb 0.00 in0.0 mm 0.00 in0.0 mm 0.46 in11.7 mm
10:45 PM 34.6°F1.4°C 38.7°F3.7°C 89% Calm Calm -- 29.60 in1002.4 mb 0.00 in0.0 mm 0.00 in0.0 mm 0.46 in11.7 mm
10:48 PM 34.6°F1.4°C 38.8°F3.8°C 90% Calm Calm -- 29.60 in1002.4 mb 0.00 in0.0 mm 0.00 in0.0 mm 0.46 in11.7 mm
10:51 PM 34.6°F1.4°C 38.9°F3.8°C 90% Calm Calm -- 29.60 in1002.4 mb 0.00 in0.0 mm 0.00 in0.0 mm 0.46 in11.7 mm
10:54 PM 34.6°F1.4°C 39.1°F3.9°C 90% Calm Calm -- 29.60 in1002.4 mb 0.00 in0.0 mm 0.00 in0.0 mm 0.46 in11.7 mm
10:57 PM 34.6°F1.4°C 39.0°F3.9°C 90% Calm Calm -- 29.60 in1002.4 mb 0.00 in0.0 mm 0.00 in0.0 mm 0.46 in11.7 mm
11:00 PM 34.6°F1.4°C 39.0°F3.9°C 90% Calm Calm -- 29.60 in1002.4 mb 0.00 in0.0 mm 0.00 in0.0 mm 0.46 in11.7 mm
11:03 PM 34.5°F1.4°C 38.9°F3.8°C 90% Calm Calm -- 29.60 in1002.4 mb 0.00 in0.0 mm 0.00 in0.0 mm 0.46 in11.7 mm
11:06 PM 34.6°F1.4°C 39.0°F3.9°C 90% Calm Calm -- 29.60 in1002.4 mb 0.00 in0.0 mm 0.00 in0.0 mm 0.46 in11.7 mm
11:09 PM 34.6°F1.4°C 39.1°F3.9°C 90% Calm Calm -- 29.61 in1002.7 mb 0.00 in0.0 mm 0.00 in0.0 mm 0.46 in11.7 mm
11:12 PM 34.6°F1.4°C 39.0°F3.9°C 90% Calm Calm -- 29.61 in1002.7 mb 0.00 in0.0 mm 0.00 in0.0 mm 0.46 in11.7 mm
11:15 PM 34.7°F1.5°C 39.1°F3.9°C 91% Calm Calm -- 29.61 in1002.7 mb 0.00 in0.0 mm 0.00 in0.0 mm 0.46 in11.7 mm
11:18 PM 34.7°F1.5°C 39.3°F4.1°C 90% Calm Calm -- 29.61 in1002.7 mb 0.00 in0.0 mm 0.00 in0.0 mm 0.46 in11.7 mm
11:21 PM 34.7°F1.5°C 39.2°F4.0°C 91% Calm Calm -- 29.61 in1002.7 mb 0.00 in0.0 mm 0.00 in0.0 mm 0.46 in11.7 mm
11:24 PM 34.7°F1.5°C 39.2°F4.0°C 91% 1.2 mph WNW1.9 kmh WNW 1.2 mph1.9 kmh 29.61 in1002.7 mb 0.00 in0.0 mm 0.00 in0.0 mm 0.46 in11.7 mm
11:27 PM 34.8°F1.6°C 39.2°F4.0°C 91% 0.8 mph NNW1.3 kmh NNW 0.8 mph1.3 kmh 29.61 in1002.7 mb 0.00 in0.0 mm 0.00 in0.0 mm 0.46 in11.7 mm
11:30 PM 34.7°F1.5°C 39.4°F4.1°C 91% Calm Calm -- 29.61 in1002.7 mb 0.00 in0.0 mm 0.00 in0.0 mm 0.46 in11.7 mm
11:33 PM 34.6°F1.4°C 39.0°F3.9°C 91% 0.8 mph NNW1.3 kmh NNW 0.8 mph1.3 kmh 29.61 in1002.7 mb 0.00 in0.0 mm 0.00 in0.0 mm 0.46 in11.7 mm
11:36 PM 34.6°F1.4°C 39.1°F3.9°C 90% Calm Calm -- 29.61 in1002.7 mb 0.00 in0.0 mm 0.00 in0.0 mm 0.46 in11.7 mm
11:39 PM 34.6°F1.4°C 38.9°F3.8°C 90% Calm Calm -- 29.60 in1002.4 mb 0.00 in0.0 mm 0.00 in0.0 mm 0.46 in11.7 mm
11:42 PM 34.6°F1.4°C 39.2°F4.0°C 91% 0.4 mph 0.6 kmh 0.4 mph0.6 kmh 29.60 in1002.4 mb 0.00 in0.0 mm 0.00 in0.0 mm 0.46 in11.7 mm
11:45 PM 34.5°F1.4°C 38.8°F3.8°C 90% Calm Calm -- 29.61 in1002.7 mb 0.00 in0.0 mm 0.00 in0.0 mm 0.46 in11.7 mm
11:48 PM 34.4°F1.3°C 38.5°F3.6°C 89% 0.8 mph NNW1.3 kmh NNW 0.8 mph1.3 kmh 29.61 in1002.7 mb 0.00 in0.0 mm 0.00 in0.0 mm 0.46 in11.7 mm
11:51 PM 34.1°F1.2°C 39.0°F3.9°C 91% Calm Calm -- 29.61 in1002.7 mb 0.00 in0.0 mm 0.00 in0.0 mm 0.46 in11.7 mm
11:54 PM 34.3°F1.3°C 39.0°F3.9°C 90% Calm Calm -- 29.60 in1002.4 mb 0.00 in0.0 mm 0.00 in0.0 mm 0.46 in11.7 mm
11:57 PM 34.4°F1.3°C 38.8°F3.8°C 90% Calm Calm -- 29.61 in1002.7 mb 0.00 in0.0 mm 0.00 in0.0 mm 0.46 in11.7 mm